VIR45W EGLL-KJFK
Flight info
| Callsign | VIR45W |
|---|---|
| Flight time | 6h 50m |
| Altitude | 38000 |
| Route | N0483F380 CPT5J CPT DCT DIDZA L9 OKSAW DCT BIBPE DCT BUCGO DCT FELCA DCT OFSOX DCT SLANY DCT MALOT/M085F390 NATE RIKAL/N0495F400 N572A TOPPS DCT ENE PARCH4 |
| Aircraft | A35K/H-SBDE3GHIJ1J2J3J5M1P2RVWXYZ/LB2D1G1 |
Departure
| Time | 2026-05-05 12:22 |
|---|---|
| Airport | London Heathrow Airport (EGLL) |
Arrival
| Time | 2026-05-05 19:12 |
|---|---|
| Airport | John F. Kennedy International Airport (KJFK) |
| Time | Latitude | Longitude | Altitude | Speed | Heading |
|---|---|---|---|---|---|
| 2026-05-05 10:49 | 51.47017 | -0.46538 | 92 ft | 0 kts | 56° |
| 2026-05-05 12:07 | 51.47007 | -0.46562 | 95 ft | 4 kts | 55° |
| 2026-05-05 12:07 | 51.46992 | -0.46596 | 93 ft | 2 kts | 55° |
| 2026-05-05 12:08 | 51.46982 | -0.46627 | 93 ft | 4 kts | 92° |
| 2026-05-05 12:08 | 51.46992 | -0.46661 | 94 ft | 4 kts | 143° |
| 2026-05-05 12:08 | 51.47013 | -0.46684 | 93 ft | 4 kts | 145° |
| 2026-05-05 12:08 | 51.47024 | -0.46697 | 93 ft | 0 kts | 145° |
| 2026-05-05 12:11 | 51.47009 | -0.46680 | 92 ft | 4 kts | 145° |
| 2026-05-05 12:12 | 51.46976 | -0.46644 | 96 ft | 7 kts | 145° |
| 2026-05-05 12:12 | 51.46928 | -0.46591 | 97 ft | 10 kts | 145° |
| 2026-05-05 12:12 | 51.46866 | -0.46522 | 96 ft | 12 kts | 145° |
| 2026-05-05 12:12 | 51.46797 | -0.46447 | 97 ft | 11 kts | 148° |
| 2026-05-05 12:13 | 51.46725 | -0.46422 | 94 ft | 11 kts | 180° |
| 2026-05-05 12:13 | 51.46664 | -0.46465 | 96 ft | 10 kts | 244° |
| 2026-05-05 12:13 | 51.46659 | -0.46584 | 96 ft | 12 kts | 269° |
| 2026-05-05 12:13 | 51.46658 | -0.46730 | 95 ft | 14 kts | 269° |
| 2026-05-05 12:14 | 51.46657 | -0.46901 | 95 ft | 16 kts | 270° |
| 2026-05-05 12:14 | 51.46657 | -0.47095 | 95 ft | 18 kts | 269° |
| 2026-05-05 12:14 | 51.46656 | -0.47310 | 95 ft | 20 kts | 270° |
| 2026-05-05 12:14 | 51.46655 | -0.47526 | 96 ft | 20 kts | 270° |
| 2026-05-05 12:15 | 51.46654 | -0.47723 | 96 ft | 17 kts | 270° |
| 2026-05-05 12:15 | 51.46653 | -0.47912 | 92 ft | 18 kts | 270° |
| 2026-05-05 12:15 | 51.46653 | -0.48011 | 92 ft | 6 kts | 270° |
| 2026-05-05 12:15 | 51.46653 | -0.48057 | 94 ft | 2 kts | 270° |
| 2026-05-05 12:16 | 51.46653 | -0.48075 | 92 ft | 0 kts | 270° |
| 2026-05-05 12:18 | 51.46653 | -0.48080 | 92 ft | 2 kts | 270° |
| 2026-05-05 12:18 | 51.46653 | -0.48102 | 95 ft | 2 kts | 269° |
| 2026-05-05 12:18 | 51.46653 | -0.48114 | 94 ft | 1 kts | 269° |
| 2026-05-05 12:19 | 51.46653 | -0.48143 | 92 ft | 5 kts | 269° |
| 2026-05-05 12:19 | 51.46653 | -0.48228 | 94 ft | 10 kts | 270° |
| 2026-05-05 12:19 | 51.46653 | -0.48367 | 92 ft | 14 kts | 270° |
| 2026-05-05 12:19 | 51.46652 | -0.48533 | 92 ft | 14 kts | 270° |
| 2026-05-05 12:20 | 51.46652 | -0.48672 | 95 ft | 10 kts | 270° |
| 2026-05-05 12:20 | 51.46637 | -0.48740 | 97 ft | 6 kts | 225° |
| 2026-05-05 12:20 | 51.46593 | -0.48770 | 93 ft | 8 kts | 200° |
| 2026-05-05 12:20 | 51.46529 | -0.48783 | 96 ft | 10 kts | 171° |
| 2026-05-05 12:21 | 51.46482 | -0.48706 | 96 ft | 10 kts | 107° |
| 2026-05-05 12:21 | 51.46479 | -0.48666 | 95 ft | 0 kts | 92° |
| 2026-05-05 12:21 | 51.46478 | -0.48505 | 96 ft | 42 kts | 90° |
| 2026-05-05 12:21 | 51.46481 | -0.47653 | 95 ft | 109 kts | 89° |
| 2026-05-05 12:22 | 51.46488 | -0.46121 | 103 ft | 163 kts | 89° |
| 2026-05-05 12:22 | 51.46489 | -0.44309 | 792 ft | 160 kts | 87° |
| 2026-05-05 12:22 | 51.46499 | -0.42539 | 1513 ft | 163 kts | 88° |
| 2026-05-05 12:22 | 51.46306 | -0.40618 | 1794 ft | 189 kts | 104° |
| 2026-05-05 12:23 | 51.45561 | -0.38697 | 2019 ft | 221 kts | 133° |
| 2026-05-05 12:23 | 51.44149 | -0.37410 | 2240 ft | 250 kts | 165° |
| 2026-05-05 12:23 | 51.42386 | -0.37501 | 2760 ft | 263 kts | 198° |
| 2026-05-05 12:23 | 51.40868 | -0.39079 | 3388 ft | 267 kts | 231° |
| 2026-05-05 12:24 | 51.40099 | -0.41789 | 4090 ft | 267 kts | 264° |
| 2026-05-05 12:24 | 51.40195 | -0.44717 | 4808 ft | 270 kts | 281° |
| 2026-05-05 12:24 | 51.40480 | -0.47703 | 5522 ft | 273 kts | 281° |
| 2026-05-05 12:24 | 51.40795 | -0.50746 | 6024 ft | 274 kts | 280° |
| 2026-05-05 12:25 | 51.41126 | -0.53764 | 6292 ft | 275 kts | 281° |
| 2026-05-05 12:25 | 51.41467 | -0.56791 | 6527 ft | 277 kts | 281° |
| 2026-05-05 12:25 | 51.41801 | -0.59800 | 6775 ft | 279 kts | 281° |
| 2026-05-05 12:25 | 51.42142 | -0.62909 | 7030 ft | 280 kts | 281° |
| 2026-05-05 12:26 | 51.42477 | -0.65936 | 7269 ft | 280 kts | 281° |
| 2026-05-05 12:26 | 51.42817 | -0.69018 | 7535 ft | 282 kts | 281° |
| 2026-05-05 12:26 | 51.43163 | -0.72120 | 8095 ft | 285 kts | 283° |
| 2026-05-05 12:26 | 51.43765 | -0.75128 | 8928 ft | 282 kts | 292° |
| 2026-05-05 12:27 | 51.44501 | -0.78052 | 9709 ft | 283 kts | 294° |
| 2026-05-05 12:27 | 51.45301 | -0.80958 | 10304 ft | 290 kts | 295° |
| 2026-05-05 12:27 | 51.46178 | -0.83986 | 10579 ft | 308 kts | 296° |
| 2026-05-05 12:27 | 51.47120 | -0.87183 | 10824 ft | 326 kts | 296° |
| 2026-05-05 12:28 | 51.48118 | -0.90552 | 11068 ft | 343 kts | 296° |
| 2026-05-05 12:28 | 51.49153 | -0.94060 | 11314 ft | 352 kts | 296° |
| 2026-05-05 12:28 | 51.50194 | -0.97625 | 11531 ft | 354 kts | 296° |
| 2026-05-05 12:28 | 51.51236 | -1.01217 | 11792 ft | 355 kts | 296° |
| 2026-05-05 12:29 | 51.52275 | -1.04821 | 12052 ft | 356 kts | 296° |
| 2026-05-05 12:29 | 51.53318 | -1.08441 | 12305 ft | 358 kts | 296° |
| 2026-05-05 12:29 | 51.54367 | -1.12082 | 12566 ft | 360 kts | 295° |
| 2026-05-05 12:29 | 51.55418 | -1.15733 | 12825 ft | 361 kts | 295° |
| 2026-05-05 12:30 | 51.56475 | -1.19416 | 12956 ft | 363 kts | 295° |
| 2026-05-05 12:30 | 51.57530 | -1.23099 | 12963 ft | 363 kts | 296° |
| 2026-05-05 12:30 | 51.58585 | -1.26789 | 12967 ft | 364 kts | 295° |
| 2026-05-05 12:30 | 51.59642 | -1.30484 | 12968 ft | 364 kts | 295° |
| 2026-05-05 12:31 | 51.60698 | -1.34182 | 12966 ft | 364 kts | 295° |
| 2026-05-05 12:31 | 51.61751 | -1.37882 | 12968 ft | 364 kts | 295° |
| 2026-05-05 12:31 | 51.62808 | -1.41604 | 13229 ft | 368 kts | 295° |
| 2026-05-05 12:31 | 51.63872 | -1.45348 | 13886 ft | 369 kts | 295° |
| 2026-05-05 12:32 | 51.64941 | -1.49107 | 14516 ft | 369 kts | 295° |
| 2026-05-05 12:32 | 51.65993 | -1.52819 | 15067 ft | 371 kts | 295° |
| 2026-05-05 12:32 | 51.67067 | -1.56621 | 15636 ft | 374 kts | 295° |
| 2026-05-05 12:32 | 51.68160 | -1.60493 | 16198 ft | 376 kts | 294° |
| 2026-05-05 12:33 | 51.69231 | -1.64295 | 16751 ft | 379 kts | 294° |
| 2026-05-05 12:33 | 51.70147 | -1.68290 | 17295 ft | 381 kts | 284° |
| 2026-05-05 12:33 | 51.70698 | -1.72484 | 17860 ft | 384 kts | 279° |
| 2026-05-05 12:33 | 51.71110 | -1.76764 | 18361 ft | 387 kts | 277° |
| 2026-05-05 12:34 | 51.71439 | -1.81076 | 18861 ft | 389 kts | 276° |
| 2026-05-05 12:34 | 51.71734 | -1.85440 | 19319 ft | 392 kts | 275° |
| 2026-05-05 12:34 | 51.72027 | -1.89817 | 19869 ft | 393 kts | 275° |
| 2026-05-05 12:34 | 51.72317 | -1.94210 | 20337 ft | 395 kts | 275° |
| 2026-05-05 12:35 | 51.72612 | -1.98630 | 20818 ft | 398 kts | 274° |
| 2026-05-05 12:35 | 51.72914 | -2.03087 | 21235 ft | 402 kts | 274° |
| 2026-05-05 12:35 | 51.73222 | -2.07577 | 21712 ft | 404 kts | 275° |
| 2026-05-05 12:35 | 51.73534 | -2.12099 | 22130 ft | 408 kts | 275° |
| 2026-05-05 12:36 | 51.73851 | -2.16645 | 22649 ft | 409 kts | 274° |
| 2026-05-05 12:36 | 51.74168 | -2.21217 | 23117 ft | 411 kts | 274° |
| 2026-05-05 12:36 | 51.74485 | -2.25818 | 23598 ft | 413 kts | 274° |
| 2026-05-05 12:36 | 51.74800 | -2.30447 | 23940 ft | 417 kts | 274° |
| 2026-05-05 12:37 | 51.75116 | -2.35112 | 24322 ft | 420 kts | 274° |
| 2026-05-05 12:37 | 51.75432 | -2.39802 | 24721 ft | 421 kts | 274° |
| 2026-05-05 12:37 | 51.75748 | -2.44514 | 25151 ft | 423 kts | 275° |
| 2026-05-05 12:37 | 51.76063 | -2.49236 | 25606 ft | 423 kts | 274° |
| 2026-05-05 12:38 | 51.76376 | -2.53966 | 26039 ft | 425 kts | 274° |
| 2026-05-05 12:38 | 51.76688 | -2.58722 | 26428 ft | 428 kts | 274° |
| 2026-05-05 12:38 | 51.77002 | -2.63518 | 26826 ft | 431 kts | 274° |
| 2026-05-05 12:38 | 51.77318 | -2.68333 | 27267 ft | 432 kts | 274° |
| 2026-05-05 12:39 | 51.77630 | -2.73168 | 27715 ft | 434 kts | 274° |
| 2026-05-05 12:39 | 51.77936 | -2.77973 | 28138 ft | 437 kts | 274° |
| 2026-05-05 12:39 | 51.78246 | -2.82870 | 28519 ft | 440 kts | 274° |
| 2026-05-05 12:39 | 51.78560 | -2.87863 | 28935 ft | 443 kts | 274° |
| 2026-05-05 12:40 | 51.78871 | -2.92830 | 29323 ft | 446 kts | 274° |
| 2026-05-05 12:40 | 51.79178 | -2.97775 | 29627 ft | 451 kts | 274° |
| 2026-05-05 12:40 | 51.79490 | -3.02815 | 30109 ft | 451 kts | 274° |
| 2026-05-05 12:40 | 51.79802 | -3.07882 | 30398 ft | 455 kts | 274° |
| 2026-05-05 12:41 | 51.80114 | -3.12987 | 30705 ft | 459 kts | 274° |
| 2026-05-05 12:41 | 51.80427 | -3.18135 | 31006 ft | 462 kts | 274° |
| 2026-05-05 12:41 | 51.80739 | -3.23312 | 31346 ft | 464 kts | 274° |
| 2026-05-05 12:41 | 51.81051 | -3.28511 | 31693 ft | 466 kts | 274° |
| 2026-05-05 12:42 | 51.81361 | -3.33748 | 31927 ft | 470 kts | 274° |
| 2026-05-05 12:42 | 51.81671 | -3.39032 | 32187 ft | 474 kts | 275° |
| 2026-05-05 12:42 | 51.81981 | -3.44351 | 32388 ft | 478 kts | 275° |
| 2026-05-05 12:42 | 51.82292 | -3.49732 | 32605 ft | 482 kts | 275° |
| 2026-05-05 12:43 | 51.82759 | -3.55104 | 32897 ft | 484 kts | 281° |
| 2026-05-05 12:43 | 51.83180 | -3.58720 | 33117 ft | 485 kts | 281° |
| 2026-05-05 12:43 | 51.83838 | -3.64058 | 33517 ft | 484 kts | 282° |
| 2026-05-05 12:43 | 51.84518 | -3.69376 | 33962 ft | 482 kts | 282° |
| 2026-05-05 12:44 | 51.85208 | -3.74688 | 34279 ft | 483 kts | 282° |
| 2026-05-05 12:44 | 51.85898 | -3.79993 | 34617 ft | 482 kts | 282° |
| 2026-05-05 12:44 | 51.86584 | -3.85289 | 34949 ft | 481 kts | 282° |
| 2026-05-05 12:44 | 51.87264 | -3.90581 | 35294 ft | 480 kts | 282° |
| 2026-05-05 12:45 | 51.87939 | -3.95875 | 35541 ft | 481 kts | 282° |
| 2026-05-05 12:45 | 51.88612 | -4.01178 | 35806 ft | 481 kts | 282° |
| 2026-05-05 12:45 | 51.89281 | -4.06477 | 36127 ft | 481 kts | 282° |
| 2026-05-05 12:45 | 51.89938 | -4.11704 | 36461 ft | 479 kts | 282° |
| 2026-05-05 12:46 | 51.90599 | -4.16990 | 36762 ft | 479 kts | 282° |
| 2026-05-05 12:46 | 51.91257 | -4.22268 | 37055 ft | 478 kts | 282° |
| 2026-05-05 12:46 | 51.91912 | -4.27545 | 37308 ft | 478 kts | 282° |
| 2026-05-05 12:46 | 51.92564 | -4.32819 | 37624 ft | 477 kts | 281° |
| 2026-05-05 12:47 | 51.93212 | -4.38077 | 37916 ft | 476 kts | 281° |
| 2026-05-05 12:47 | 51.93858 | -4.43347 | 38032 ft | 478 kts | 282° |
| 2026-05-05 12:47 | 51.95157 | -4.53989 | 38036 ft | 482 kts | 281° |
| 2026-05-05 12:48 | 51.96449 | -4.64670 | 38036 ft | 481 kts | 281° |
| 2026-05-05 12:48 | 51.97723 | -4.75284 | 38044 ft | 479 kts | 281° |
| 2026-05-05 12:49 | 51.98988 | -4.85894 | 38043 ft | 480 kts | 281° |
| 2026-05-05 12:49 | 52.00245 | -4.96530 | 38054 ft | 480 kts | 281° |
| 2026-05-05 12:50 | 52.01488 | -5.07144 | 38057 ft | 479 kts | 281° |
| 2026-05-05 12:50 | 52.02756 | -5.17768 | 38049 ft | 480 kts | 284° |
| 2026-05-05 12:51 | 52.04658 | -5.28143 | 38055 ft | 479 kts | 288° |
| 2026-05-05 12:51 | 52.06705 | -5.38347 | 38057 ft | 478 kts | 288° |
| 2026-05-05 12:52 | 52.08786 | -5.48616 | 38062 ft | 478 kts | 288° |
| 2026-05-05 12:52 | 52.10856 | -5.58923 | 38062 ft | 480 kts | 288° |
| 2026-05-05 12:53 | 52.12909 | -5.69242 | 38068 ft | 479 kts | 288° |
| 2026-05-05 12:53 | 52.14943 | -5.79533 | 38069 ft | 477 kts | 288° |
| 2026-05-05 12:54 | 52.17341 | -5.95238 | 38075 ft | 477 kts | 282° |
| 2026-05-05 12:55 | 52.18728 | -6.05802 | 38073 ft | 477 kts | 282° |
| 2026-05-05 12:55 | 52.20095 | -6.16377 | 38071 ft | 477 kts | 282° |
| 2026-05-05 12:56 | 52.21459 | -6.26962 | 38066 ft | 477 kts | 282° |
| 2026-05-05 12:56 | 52.22817 | -6.37550 | 38069 ft | 477 kts | 282° |
| 2026-05-05 12:57 | 52.24168 | -6.48145 | 38072 ft | 477 kts | 282° |
| 2026-05-05 12:57 | 52.25501 | -6.58678 | 38077 ft | 477 kts | 282° |
| 2026-05-05 12:58 | 52.26833 | -6.69287 | 38081 ft | 477 kts | 282° |
| 2026-05-05 12:58 | 52.28154 | -6.79896 | 38089 ft | 477 kts | 282° |
| 2026-05-05 12:59 | 52.29467 | -6.90518 | 38094 ft | 477 kts | 282° |
| 2026-05-05 12:59 | 52.30768 | -7.01136 | 38097 ft | 476 kts | 282° |
| 2026-05-05 13:00 | 52.32702 | -7.17054 | 38099 ft | 476 kts | 281° |
| 2026-05-05 13:01 | 52.35238 | -7.38249 | 38090 ft | 475 kts | 281° |
| 2026-05-05 13:01 | 52.36494 | -7.48866 | 38083 ft | 476 kts | 281° |
| 2026-05-05 13:02 | 52.37740 | -7.59489 | 38083 ft | 475 kts | 281° |
| 2026-05-05 13:02 | 52.38975 | -7.70110 | 38084 ft | 475 kts | 281° |
| 2026-05-05 13:03 | 52.40202 | -7.80742 | 38089 ft | 476 kts | 281° |
| 2026-05-05 13:03 | 52.41419 | -7.91380 | 38088 ft | 475 kts | 281° |
| 2026-05-05 13:04 | 52.42625 | -8.02005 | 38092 ft | 474 kts | 281° |
| 2026-05-05 13:04 | 52.43821 | -8.12642 | 38093 ft | 475 kts | 281° |
| 2026-05-05 13:05 | 52.45000 | -8.23215 | 38099 ft | 474 kts | 281° |
| 2026-05-05 13:05 | 52.46184 | -8.33915 | 38099 ft | 474 kts | 280° |
| 2026-05-05 13:06 | 52.47344 | -8.44494 | 38105 ft | 474 kts | 280° |
| 2026-05-05 13:06 | 52.48502 | -8.55156 | 38104 ft | 475 kts | 280° |
| 2026-05-05 13:07 | 52.49652 | -8.65828 | 38108 ft | 475 kts | 280° |
| 2026-05-05 13:07 | 52.50793 | -8.76515 | 38106 ft | 475 kts | 280° |
| 2026-05-05 13:08 | 52.51924 | -8.87205 | 38106 ft | 475 kts | 280° |
| 2026-05-05 13:08 | 52.53046 | -8.97905 | 38106 ft | 475 kts | 280° |
| 2026-05-05 13:09 | 52.54158 | -9.08605 | 38106 ft | 475 kts | 279° |
| 2026-05-05 13:09 | 52.55259 | -9.19305 | 38109 ft | 475 kts | 279° |
| 2026-05-05 13:10 | 52.56352 | -9.30019 | 38113 ft | 475 kts | 279° |
| 2026-05-05 13:10 | 52.57434 | -9.40731 | 38119 ft | 475 kts | 279° |
| 2026-05-05 13:11 | 52.58507 | -9.51448 | 38123 ft | 475 kts | 279° |
| 2026-05-05 13:11 | 52.59570 | -9.62171 | 38124 ft | 475 kts | 279° |
| 2026-05-05 13:12 | 52.60623 | -9.72899 | 38127 ft | 475 kts | 279° |
| 2026-05-05 13:12 | 52.61666 | -9.83621 | 38126 ft | 474 kts | 279° |
| 2026-05-05 13:13 | 52.62698 | -9.94335 | 38132 ft | 474 kts | 279° |
| 2026-05-05 13:13 | 52.63719 | -10.05053 | 38132 ft | 474 kts | 279° |
| 2026-05-05 13:14 | 52.64731 | -10.15773 | 38135 ft | 474 kts | 279° |
| 2026-05-05 13:14 | 52.65733 | -10.26494 | 38135 ft | 473 kts | 279° |
| 2026-05-05 13:15 | 52.66724 | -10.37209 | 38138 ft | 473 kts | 279° |
| 2026-05-05 13:15 | 52.67706 | -10.47938 | 38138 ft | 473 kts | 278° |
| 2026-05-05 13:16 | 52.68679 | -10.58667 | 38141 ft | 473 kts | 278° |
| 2026-05-05 13:16 | 52.69642 | -10.69406 | 38146 ft | 474 kts | 278° |
| 2026-05-05 13:17 | 52.70595 | -10.80146 | 38143 ft | 473 kts | 278° |
| 2026-05-05 13:17 | 52.71531 | -10.90809 | 38151 ft | 473 kts | 278° |
| 2026-05-05 13:18 | 52.72465 | -11.01567 | 38151 ft | 473 kts | 278° |
| 2026-05-05 13:18 | 52.73388 | -11.12315 | 38158 ft | 473 kts | 278° |
| 2026-05-05 13:19 | 52.74301 | -11.23057 | 38154 ft | 473 kts | 278° |
| 2026-05-05 13:19 | 52.75204 | -11.33807 | 38163 ft | 473 kts | 278° |
| 2026-05-05 13:20 | 52.76097 | -11.44546 | 38163 ft | 472 kts | 278° |
| 2026-05-05 13:20 | 52.76980 | -11.55299 | 38162 ft | 472 kts | 278° |
| 2026-05-05 13:21 | 52.77854 | -11.66052 | 38156 ft | 472 kts | 278° |
| 2026-05-05 13:21 | 52.78717 | -11.76805 | 38165 ft | 472 kts | 278° |
| 2026-05-05 13:22 | 52.79571 | -11.87565 | 38165 ft | 472 kts | 278° |
| 2026-05-05 13:22 | 52.80415 | -11.98326 | 38171 ft | 472 kts | 277° |
| 2026-05-05 13:23 | 52.81250 | -12.09102 | 38170 ft | 472 kts | 277° |
| 2026-05-05 13:23 | 52.82074 | -12.19870 | 38171 ft | 472 kts | 277° |
| 2026-05-05 13:24 | 52.82887 | -12.30631 | 38176 ft | 472 kts | 277° |
| 2026-05-05 13:24 | 52.83691 | -12.41394 | 38178 ft | 472 kts | 277° |
| 2026-05-05 13:25 | 52.84484 | -12.52144 | 38181 ft | 472 kts | 277° |
| 2026-05-05 13:25 | 52.85270 | -12.62929 | 38181 ft | 472 kts | 277° |
| 2026-05-05 13:26 | 52.86044 | -12.73700 | 38179 ft | 471 kts | 277° |
| 2026-05-05 13:26 | 52.86807 | -12.84464 | 38187 ft | 471 kts | 277° |
| 2026-05-05 13:27 | 52.87562 | -12.95244 | 38187 ft | 471 kts | 277° |
| 2026-05-05 13:27 | 52.88302 | -13.05945 | 38193 ft | 471 kts | 277° |
| 2026-05-05 13:28 | 52.89041 | -13.16790 | 38192 ft | 471 kts | 277° |
| 2026-05-05 13:28 | 52.89762 | -13.27502 | 38187 ft | 471 kts | 277° |
| 2026-05-05 13:29 | 52.90475 | -13.38266 | 38201 ft | 470 kts | 277° |
| 2026-05-05 13:29 | 52.91180 | -13.49040 | 38192 ft | 470 kts | 277° |
| 2026-05-05 13:30 | 52.91874 | -13.59805 | 38204 ft | 470 kts | 277° |
| 2026-05-05 13:30 | 52.92558 | -13.70567 | 38205 ft | 470 kts | 276° |
| 2026-05-05 13:31 | 52.93234 | -13.81356 | 38198 ft | 470 kts | 276° |
| 2026-05-05 13:31 | 52.93786 | -13.90303 | 38202 ft | 469 kts | 276° |
| 2026-05-05 13:32 | 52.94441 | -14.01052 | 38203 ft | 469 kts | 276° |
| 2026-05-05 13:32 | 52.95088 | -14.11822 | 38203 ft | 469 kts | 276° |
| 2026-05-05 13:33 | 52.95724 | -14.22593 | 38203 ft | 469 kts | 276° |
| 2026-05-05 13:33 | 52.96350 | -14.33352 | 38198 ft | 469 kts | 276° |
| 2026-05-05 13:34 | 52.96967 | -14.44125 | 38210 ft | 469 kts | 276° |
| 2026-05-05 13:34 | 52.97573 | -14.54885 | 38214 ft | 469 kts | 276° |
| 2026-05-05 13:35 | 52.98169 | -14.65653 | 38208 ft | 469 kts | 276° |
| 2026-05-05 13:35 | 52.98756 | -14.76424 | 38216 ft | 469 kts | 276° |
| 2026-05-05 13:36 | 52.99334 | -14.87194 | 38214 ft | 469 kts | 276° |
| 2026-05-05 13:36 | 53.00022 | -14.97936 | 38518 ft | 466 kts | 281° |
| 2026-05-05 13:37 | 53.00814 | -15.03142 | 38772 ft | 465 kts | 289° |
| 2026-05-05 13:37 | 53.01843 | -15.08240 | 38879 ft | 467 kts | 290° |
| 2026-05-05 13:37 | 53.02947 | -15.13328 | 39007 ft | 468 kts | 290° |
| 2026-05-05 13:37 | 53.04084 | -15.18386 | 39146 ft | 469 kts | 291° |
| 2026-05-05 13:38 | 53.06391 | -15.28540 | 39220 ft | 470 kts | 291° |
| 2026-05-05 13:38 | 53.08675 | -15.38706 | 39219 ft | 469 kts | 290° |
| 2026-05-05 13:39 | 53.10934 | -15.48891 | 39216 ft | 469 kts | 290° |
| 2026-05-05 13:39 | 53.13185 | -15.59117 | 39222 ft | 469 kts | 290° |
| 2026-05-05 13:40 | 53.15420 | -15.69322 | 39222 ft | 469 kts | 290° |
| 2026-05-05 13:40 | 53.17648 | -15.79543 | 39222 ft | 469 kts | 290° |
| 2026-05-05 13:41 | 53.19868 | -15.89771 | 39223 ft | 470 kts | 290° |
| 2026-05-05 13:41 | 53.22082 | -16.00029 | 39224 ft | 470 kts | 290° |
| 2026-05-05 13:42 | 53.24289 | -16.10299 | 39225 ft | 470 kts | 290° |
| 2026-05-05 13:42 | 53.26485 | -16.20577 | 39227 ft | 470 kts | 290° |
| 2026-05-05 13:43 | 53.28676 | -16.30877 | 39227 ft | 470 kts | 290° |
| 2026-05-05 13:43 | 53.30857 | -16.41187 | 39227 ft | 470 kts | 290° |
| 2026-05-05 13:44 | 53.33013 | -16.51427 | 39227 ft | 470 kts | 290° |
| 2026-05-05 13:44 | 53.35173 | -16.61743 | 39230 ft | 470 kts | 289° |
| 2026-05-05 13:45 | 53.37330 | -16.72093 | 39226 ft | 470 kts | 289° |
| 2026-05-05 13:45 | 53.39474 | -16.82439 | 39228 ft | 470 kts | 289° |
| 2026-05-05 13:46 | 53.41609 | -16.92791 | 39230 ft | 470 kts | 289° |
| 2026-05-05 13:46 | 53.43735 | -17.03156 | 39233 ft | 470 kts | 289° |
| 2026-05-05 13:47 | 53.45853 | -17.13531 | 39233 ft | 470 kts | 289° |
| 2026-05-05 13:47 | 53.47961 | -17.23917 | 39232 ft | 470 kts | 289° |
| 2026-05-05 13:48 | 53.50060 | -17.34313 | 39236 ft | 470 kts | 289° |
| 2026-05-05 13:48 | 53.52149 | -17.44714 | 39238 ft | 470 kts | 289° |
| 2026-05-05 13:49 | 53.54230 | -17.55129 | 39238 ft | 470 kts | 289° |
| 2026-05-05 13:49 | 53.56302 | -17.65556 | 39238 ft | 470 kts | 289° |
| 2026-05-05 13:50 | 53.58366 | -17.75994 | 39238 ft | 470 kts | 289° |
| 2026-05-05 13:50 | 53.60405 | -17.86367 | 39238 ft | 470 kts | 289° |
| 2026-05-05 13:51 | 53.62448 | -17.96814 | 39235 ft | 470 kts | 289° |
| 2026-05-05 13:51 | 53.64484 | -18.07282 | 39245 ft | 470 kts | 289° |
| 2026-05-05 13:52 | 53.66510 | -18.17756 | 39243 ft | 470 kts | 289° |
| 2026-05-05 13:52 | 53.68528 | -18.28245 | 39244 ft | 470 kts | 288° |
| 2026-05-05 13:53 | 53.70536 | -18.38741 | 39244 ft | 470 kts | 288° |
| 2026-05-05 13:53 | 53.72536 | -18.49251 | 39243 ft | 470 kts | 288° |
| 2026-05-05 13:54 | 53.74527 | -18.59777 | 39239 ft | 470 kts | 288° |
| 2026-05-05 13:54 | 53.76508 | -18.70302 | 39246 ft | 470 kts | 288° |
| 2026-05-05 13:55 | 53.78480 | -18.80843 | 39253 ft | 470 kts | 288° |
| 2026-05-05 13:55 | 53.80441 | -18.91380 | 39249 ft | 470 kts | 288° |
| 2026-05-05 13:56 | 53.82395 | -19.01944 | 39246 ft | 470 kts | 288° |
| 2026-05-05 13:56 | 53.84339 | -19.12512 | 39249 ft | 470 kts | 288° |
| 2026-05-05 13:57 | 53.86272 | -19.23083 | 39250 ft | 470 kts | 288° |
| 2026-05-05 13:57 | 53.88184 | -19.33595 | 39247 ft | 470 kts | 288° |
| 2026-05-05 13:58 | 53.90100 | -19.44193 | 39252 ft | 470 kts | 288° |
| 2026-05-05 13:58 | 53.92004 | -19.54782 | 39249 ft | 470 kts | 288° |
| 2026-05-05 13:59 | 53.94847 | -19.70712 | 39252 ft | 470 kts | 288° |
| 2026-05-05 14:00 | 53.97351 | -19.84864 | 39250 ft | 470 kts | 288° |
| 2026-05-05 14:00 | 53.99490 | -19.97318 | 39258 ft | 470 kts | 284° |
| 2026-05-05 14:01 | 54.00359 | -20.08356 | 39257 ft | 472 kts | 276° |
| 2026-05-05 14:01 | 54.00846 | -20.19502 | 39260 ft | 473 kts | 275° |
| 2026-05-05 14:02 | 54.01262 | -20.30661 | 39260 ft | 473 kts | 275° |
| 2026-05-05 14:02 | 54.01676 | -20.41821 | 39260 ft | 473 kts | 275° |
| 2026-05-05 14:03 | 54.02091 | -20.52986 | 39261 ft | 473 kts | 276° |
| 2026-05-05 14:03 | 54.02502 | -20.64175 | 39260 ft | 474 kts | 276° |
| 2026-05-05 14:04 | 54.02904 | -20.75374 | 39262 ft | 474 kts | 275° |
| 2026-05-05 14:04 | 54.03294 | -20.86572 | 39262 ft | 474 kts | 275° |
| 2026-05-05 14:05 | 54.03674 | -20.97772 | 39262 ft | 474 kts | 275° |
| 2026-05-05 14:05 | 54.04043 | -21.08979 | 39265 ft | 475 kts | 275° |
| 2026-05-05 14:06 | 54.04400 | -21.20128 | 39262 ft | 475 kts | 275° |
| 2026-05-05 14:06 | 54.04749 | -21.31353 | 39263 ft | 475 kts | 275° |
| 2026-05-05 14:07 | 54.05088 | -21.42578 | 39268 ft | 475 kts | 275° |
| 2026-05-05 14:07 | 54.05416 | -21.53815 | 39268 ft | 475 kts | 275° |
| 2026-05-05 14:08 | 54.05733 | -21.65047 | 39265 ft | 475 kts | 275° |
| 2026-05-05 14:08 | 54.06041 | -21.76293 | 39268 ft | 475 kts | 275° |
| 2026-05-05 14:09 | 54.06338 | -21.87536 | 39270 ft | 475 kts | 275° |
| 2026-05-05 14:09 | 54.06624 | -21.98778 | 39270 ft | 475 kts | 275° |
| 2026-05-05 14:10 | 54.06900 | -22.10025 | 39270 ft | 475 kts | 275° |
| 2026-05-05 14:10 | 54.07166 | -22.21273 | 39270 ft | 475 kts | 275° |
| 2026-05-05 14:11 | 54.07421 | -22.32523 | 39272 ft | 476 kts | 274° |
| 2026-05-05 14:11 | 54.07665 | -22.43780 | 39273 ft | 476 kts | 274° |
| 2026-05-05 14:12 | 54.07899 | -22.55035 | 39273 ft | 476 kts | 274° |
| 2026-05-05 14:12 | 54.08121 | -22.66215 | 39273 ft | 476 kts | 274° |
| 2026-05-05 14:13 | 54.08334 | -22.77477 | 39273 ft | 476 kts | 274° |
| 2026-05-05 14:13 | 54.08537 | -22.88741 | 39277 ft | 476 kts | 274° |
| 2026-05-05 14:14 | 54.08729 | -23.00004 | 39280 ft | 476 kts | 274° |
| 2026-05-05 14:14 | 54.08911 | -23.11276 | 39276 ft | 476 kts | 274° |
| 2026-05-05 14:15 | 54.09082 | -23.22541 | 39282 ft | 476 kts | 274° |
| 2026-05-05 14:15 | 54.09242 | -23.33803 | 39266 ft | 476 kts | 274° |
| 2026-05-05 14:16 | 54.09392 | -23.45060 | 39284 ft | 476 kts | 274° |
| 2026-05-05 14:16 | 54.09531 | -23.56339 | 39284 ft | 476 kts | 274° |
| 2026-05-05 14:17 | 54.09660 | -23.67606 | 39281 ft | 476 kts | 274° |
| 2026-05-05 14:17 | 54.09779 | -23.78869 | 39282 ft | 476 kts | 274° |
| 2026-05-05 14:18 | 54.09887 | -23.90141 | 39285 ft | 476 kts | 274° |
| 2026-05-05 14:18 | 54.09984 | -24.01403 | 39287 ft | 475 kts | 274° |
| 2026-05-05 14:19 | 54.10071 | -24.12669 | 39285 ft | 475 kts | 274° |
| 2026-05-05 14:19 | 54.10147 | -24.23925 | 39296 ft | 475 kts | 273° |
| 2026-05-05 14:20 | 54.10202 | -24.33281 | 39283 ft | 475 kts | 273° |
| 2026-05-05 14:20 | 54.10259 | -24.44543 | 39293 ft | 475 kts | 273° |
| 2026-05-05 14:21 | 54.10306 | -24.55784 | 39290 ft | 475 kts | 273° |
| 2026-05-05 14:21 | 54.10341 | -24.67041 | 39287 ft | 474 kts | 273° |
| 2026-05-05 14:22 | 54.10367 | -24.78275 | 39294 ft | 474 kts | 273° |
| 2026-05-05 14:22 | 54.10382 | -24.89518 | 39295 ft | 474 kts | 273° |
| 2026-05-05 14:23 | 54.10387 | -25.00755 | 39294 ft | 474 kts | 273° |
| 2026-05-05 14:23 | 54.10381 | -25.11996 | 39290 ft | 474 kts | 273° |
| 2026-05-05 14:24 | 54.10364 | -25.23222 | 39296 ft | 473 kts | 273° |
| 2026-05-05 14:24 | 54.10337 | -25.34439 | 39300 ft | 473 kts | 273° |
| 2026-05-05 14:25 | 54.10300 | -25.45662 | 39300 ft | 473 kts | 272° |
| 2026-05-05 14:25 | 54.10252 | -25.56877 | 39299 ft | 473 kts | 272° |
| 2026-05-05 14:26 | 54.10194 | -25.68095 | 39287 ft | 473 kts | 272° |
| 2026-05-05 14:26 | 54.10125 | -25.79296 | 39303 ft | 472 kts | 272° |
| 2026-05-05 14:27 | 54.10047 | -25.90485 | 39297 ft | 472 kts | 272° |
| 2026-05-05 14:27 | 54.09958 | -26.01676 | 39299 ft | 473 kts | 272° |
| 2026-05-05 14:28 | 54.09858 | -26.12875 | 39302 ft | 472 kts | 272° |
| 2026-05-05 14:28 | 54.09749 | -26.23988 | 39283 ft | 472 kts | 272° |
| 2026-05-05 14:29 | 54.09627 | -26.35244 | 39296 ft | 472 kts | 272° |
| 2026-05-05 14:29 | 54.09498 | -26.46339 | 39302 ft | 472 kts | 272° |
| 2026-05-05 14:30 | 54.09357 | -26.57510 | 39302 ft | 472 kts | 272° |
| 2026-05-05 14:30 | 54.09206 | -26.68672 | 39312 ft | 472 kts | 272° |
| 2026-05-05 14:31 | 54.09045 | -26.79854 | 39304 ft | 472 kts | 272° |
| 2026-05-05 14:31 | 54.08873 | -26.91037 | 39308 ft | 472 kts | 272° |
| 2026-05-05 14:32 | 54.08690 | -27.02218 | 39310 ft | 472 kts | 272° |
| 2026-05-05 14:32 | 54.08497 | -27.13400 | 39313 ft | 472 kts | 271° |
| 2026-05-05 14:33 | 54.08294 | -27.24589 | 39310 ft | 473 kts | 271° |
| 2026-05-05 14:33 | 54.08081 | -27.35770 | 39310 ft | 473 kts | 271° |
| 2026-05-05 14:34 | 54.07856 | -27.46962 | 39308 ft | 473 kts | 271° |
| 2026-05-05 14:34 | 54.07622 | -27.58158 | 39312 ft | 473 kts | 271° |
| 2026-05-05 14:35 | 54.07377 | -27.69349 | 39313 ft | 473 kts | 271° |
| 2026-05-05 14:35 | 54.07121 | -27.80550 | 39311 ft | 473 kts | 271° |
| 2026-05-05 14:36 | 54.06855 | -27.91754 | 39312 ft | 473 kts | 271° |
| 2026-05-05 14:36 | 54.06581 | -28.02877 | 39311 ft | 474 kts | 271° |
| 2026-05-05 14:37 | 54.06292 | -28.14161 | 39311 ft | 474 kts | 271° |
| 2026-05-05 14:37 | 54.05996 | -28.25307 | 39311 ft | 475 kts | 271° |
| 2026-05-05 14:38 | 54.05687 | -28.36524 | 39317 ft | 475 kts | 271° |
| 2026-05-05 14:38 | 54.05369 | -28.47740 | 39317 ft | 475 kts | 271° |
| 2026-05-05 14:39 | 54.05039 | -28.58964 | 39306 ft | 475 kts | 271° |
| 2026-05-05 14:39 | 54.04700 | -28.70172 | 39317 ft | 474 kts | 271° |
| 2026-05-05 14:40 | 54.04350 | -28.81372 | 39317 ft | 474 kts | 270° |
| 2026-05-05 14:40 | 54.03990 | -28.92567 | 39317 ft | 474 kts | 270° |
| 2026-05-05 14:41 | 54.03620 | -29.03764 | 39319 ft | 474 kts | 270° |
| 2026-05-05 14:41 | 54.03239 | -29.14964 | 39298 ft | 474 kts | 270° |
| 2026-05-05 14:42 | 54.02848 | -29.26138 | 39320 ft | 473 kts | 270° |
| 2026-05-05 14:42 | 54.02448 | -29.37301 | 39321 ft | 473 kts | 270° |
| 2026-05-05 14:43 | 54.02037 | -29.48466 | 39321 ft | 473 kts | 270° |
| 2026-05-05 14:43 | 54.01615 | -29.59622 | 39311 ft | 473 kts | 270° |
| 2026-05-05 14:44 | 54.01184 | -29.70781 | 39313 ft | 473 kts | 270° |
| 2026-05-05 14:44 | 54.00743 | -29.81929 | 39309 ft | 472 kts | 269° |
| 2026-05-05 14:45 | 54.00291 | -29.93065 | 39308 ft | 472 kts | 269° |
| 2026-05-05 14:45 | 54.00207 | -30.04174 | 39306 ft | 469 kts | 276° |
| 2026-05-05 14:46 | 54.00595 | -30.15232 | 39306 ft | 468 kts | 277° |
| 2026-05-05 14:46 | 54.01050 | -30.26277 | 39306 ft | 468 kts | 277° |
| 2026-05-05 14:47 | 54.01497 | -30.37323 | 39303 ft | 469 kts | 276° |
| 2026-05-05 14:47 | 54.01923 | -30.48386 | 39305 ft | 469 kts | 276° |
| 2026-05-05 14:48 | 54.02332 | -30.59448 | 39306 ft | 469 kts | 276° |
| 2026-05-05 14:48 | 54.02729 | -30.70448 | 39305 ft | 469 kts | 276° |
| 2026-05-05 14:49 | 54.03119 | -30.81522 | 39296 ft | 469 kts | 275° |
| 2026-05-05 14:49 | 54.03499 | -30.92607 | 39296 ft | 469 kts | 275° |
| 2026-05-05 14:50 | 54.03870 | -31.03688 | 39295 ft | 469 kts | 275° |
| 2026-05-05 14:50 | 54.04230 | -31.14780 | 39293 ft | 470 kts | 275° |
| 2026-05-05 14:51 | 54.04580 | -31.25884 | 39288 ft | 470 kts | 274° |
| 2026-05-05 14:51 | 54.04921 | -31.36998 | 39291 ft | 471 kts | 274° |
| 2026-05-05 14:52 | 54.05251 | -31.48119 | 39283 ft | 471 kts | 274° |
| 2026-05-05 14:52 | 54.05570 | -31.59239 | 39285 ft | 471 kts | 274° |
| 2026-05-05 14:53 | 54.05881 | -31.70374 | 39289 ft | 471 kts | 273° |
| 2026-05-05 14:53 | 54.06180 | -31.81499 | 39274 ft | 470 kts | 273° |
| 2026-05-05 14:54 | 54.06469 | -31.92635 | 39273 ft | 471 kts | 273° |
| 2026-05-05 14:54 | 54.06748 | -32.03763 | 39284 ft | 470 kts | 273° |
| 2026-05-05 14:55 | 54.07015 | -32.14820 | 39285 ft | 471 kts | 273° |
| 2026-05-05 14:55 | 54.07274 | -32.25956 | 39270 ft | 471 kts | 272° |
| 2026-05-05 14:56 | 54.07522 | -32.37107 | 39268 ft | 472 kts | 272° |
| 2026-05-05 14:56 | 54.07761 | -32.48293 | 39268 ft | 473 kts | 272° |
| 2026-05-05 14:57 | 54.07990 | -32.59524 | 39265 ft | 472 kts | 272° |
| 2026-05-05 14:57 | 54.08208 | -32.70710 | 39258 ft | 473 kts | 272° |
| 2026-05-05 14:58 | 54.08416 | -32.81897 | 39259 ft | 472 kts | 271° |
| 2026-05-05 14:58 | 54.08612 | -32.93006 | 39255 ft | 474 kts | 270° |
| 2026-05-05 14:59 | 54.08801 | -33.04202 | 39246 ft | 472 kts | 270° |
| 2026-05-05 14:59 | 54.08977 | -33.15401 | 39259 ft | 474 kts | 270° |
| 2026-05-05 15:00 | 54.09118 | -33.24793 | 39247 ft | 472 kts | 270° |
| 2026-05-05 15:00 | 54.09297 | -33.37798 | 39243 ft | 473 kts | 270° |
| 2026-05-05 15:01 | 54.09443 | -33.48996 | 39239 ft | 473 kts | 270° |
| 2026-05-05 15:01 | 54.09578 | -33.60194 | 39237 ft | 474 kts | 269° |
| 2026-05-05 15:02 | 54.09704 | -33.71486 | 39235 ft | 478 kts | 269° |
| 2026-05-05 15:02 | 54.09818 | -33.82809 | 39237 ft | 478 kts | 269° |
| 2026-05-05 15:03 | 54.09924 | -33.94139 | 39234 ft | 478 kts | 268° |
| 2026-05-05 15:03 | 54.10018 | -34.05455 | 39228 ft | 479 kts | 269° |
| 2026-05-05 15:04 | 54.10101 | -34.16809 | 39221 ft | 480 kts | 268° |
| 2026-05-05 15:04 | 54.10173 | -34.28181 | 39222 ft | 480 kts | 269° |
| 2026-05-05 15:05 | 54.10263 | -34.45234 | 39215 ft | 480 kts | 268° |
| 2026-05-05 15:06 | 54.10309 | -34.56619 | 39215 ft | 480 kts | 268° |
| 2026-05-05 15:06 | 54.10345 | -34.67986 | 39205 ft | 480 kts | 268° |
| 2026-05-05 15:07 | 54.10369 | -34.79277 | 39203 ft | 480 kts | 268° |
| 2026-05-05 15:07 | 54.10384 | -34.90643 | 39192 ft | 480 kts | 267° |
| 2026-05-05 15:08 | 54.10387 | -35.02013 | 39193 ft | 481 kts | 267° |
| 2026-05-05 15:08 | 54.10379 | -35.13418 | 39181 ft | 481 kts | 267° |
| 2026-05-05 15:09 | 54.10365 | -35.22972 | 39181 ft | 481 kts | 267° |
| 2026-05-05 15:09 | 54.10338 | -35.34379 | 39170 ft | 481 kts | 267° |
| 2026-05-05 15:10 | 54.10301 | -35.45707 | 39170 ft | 481 kts | 267° |
| 2026-05-05 15:10 | 54.10253 | -35.57097 | 39171 ft | 480 kts | 266° |
| 2026-05-05 15:11 | 54.10194 | -35.68471 | 39159 ft | 480 kts | 266° |
| 2026-05-05 15:11 | 54.10124 | -35.79837 | 39159 ft | 480 kts | 266° |
| 2026-05-05 15:12 | 54.10043 | -35.91194 | 39154 ft | 480 kts | 266° |
| 2026-05-05 15:12 | 54.09951 | -36.02593 | 39150 ft | 481 kts | 266° |
| 2026-05-05 15:13 | 54.09849 | -36.14006 | 39153 ft | 482 kts | 266° |
| 2026-05-05 15:13 | 54.09736 | -36.25401 | 39140 ft | 481 kts | 266° |
| 2026-05-05 15:14 | 54.09612 | -36.36775 | 39137 ft | 480 kts | 266° |
| 2026-05-05 15:14 | 54.09478 | -36.48154 | 39133 ft | 480 kts | 266° |
| 2026-05-05 15:15 | 54.09333 | -36.59522 | 39125 ft | 480 kts | 265° |
| 2026-05-05 15:15 | 54.09177 | -36.70890 | 39124 ft | 480 kts | 265° |
| 2026-05-05 15:16 | 54.09010 | -36.82268 | 39124 ft | 481 kts | 265° |
| 2026-05-05 15:16 | 54.08831 | -36.93694 | 39114 ft | 484 kts | 265° |
| 2026-05-05 15:17 | 54.08642 | -37.05157 | 39115 ft | 484 kts | 265° |
| 2026-05-05 15:17 | 54.08442 | -37.16614 | 39110 ft | 484 kts | 265° |
| 2026-05-05 15:18 | 54.08231 | -37.28054 | 39109 ft | 484 kts | 265° |
| 2026-05-05 15:18 | 54.08009 | -37.39507 | 39107 ft | 484 kts | 265° |
| 2026-05-05 15:19 | 54.07776 | -37.50960 | 39103 ft | 484 kts | 265° |
| 2026-05-05 15:19 | 54.07533 | -37.62319 | 39103 ft | 484 kts | 265° |
| 2026-05-05 15:20 | 54.07277 | -37.73847 | 39106 ft | 484 kts | 265° |
| 2026-05-05 15:20 | 54.07010 | -37.85322 | 39100 ft | 486 kts | 264° |
| 2026-05-05 15:21 | 54.06735 | -37.96738 | 39097 ft | 486 kts | 264° |
| 2026-05-05 15:21 | 54.06446 | -38.08230 | 39096 ft | 485 kts | 264° |
| 2026-05-05 15:22 | 54.06148 | -38.19682 | 39096 ft | 484 kts | 264° |
| 2026-05-05 15:22 | 54.05839 | -38.31130 | 39100 ft | 484 kts | 264° |
| 2026-05-05 15:23 | 54.05519 | -38.42559 | 39094 ft | 483 kts | 264° |
| 2026-05-05 15:23 | 54.05188 | -38.53984 | 39094 ft | 483 kts | 264° |
| 2026-05-05 15:24 | 54.04846 | -38.65417 | 39104 ft | 484 kts | 264° |
| 2026-05-05 15:24 | 54.04493 | -38.76869 | 39098 ft | 485 kts | 264° |
| 2026-05-05 15:25 | 54.04128 | -38.88341 | 39093 ft | 485 kts | 263° |
| 2026-05-05 15:25 | 54.03754 | -38.99796 | 39098 ft | 485 kts | 263° |
| 2026-05-05 15:26 | 54.03368 | -39.11245 | 39098 ft | 485 kts | 263° |
| 2026-05-05 15:26 | 54.02971 | -39.22694 | 39092 ft | 485 kts | 263° |
| 2026-05-05 15:27 | 54.02563 | -39.34148 | 39104 ft | 485 kts | 263° |
| 2026-05-05 15:27 | 54.02145 | -39.45582 | 39087 ft | 484 kts | 263° |
| 2026-05-05 15:28 | 54.01716 | -39.57013 | 39096 ft | 485 kts | 263° |
| 2026-05-05 15:28 | 54.01275 | -39.68474 | 39088 ft | 486 kts | 263° |
| 2026-05-05 15:29 | 54.00825 | -39.79871 | 39085 ft | 486 kts | 263° |
| 2026-05-05 15:29 | 54.00362 | -39.91339 | 39089 ft | 486 kts | 263° |
| 2026-05-05 15:30 | 53.99886 | -40.02803 | 39083 ft | 486 kts | 262° |
| 2026-05-05 15:30 | 53.99258 | -40.14239 | 39083 ft | 486 kts | 261° |
| 2026-05-05 15:31 | 53.98551 | -40.25661 | 39084 ft | 486 kts | 261° |
| 2026-05-05 15:31 | 53.97851 | -40.37079 | 39080 ft | 486 kts | 261° |
| 2026-05-05 15:32 | 53.97159 | -40.48498 | 39088 ft | 486 kts | 261° |
| 2026-05-05 15:32 | 53.96461 | -40.59932 | 39079 ft | 488 kts | 261° |
| 2026-05-05 15:33 | 53.95750 | -40.71389 | 39076 ft | 488 kts | 261° |
| 2026-05-05 15:33 | 53.95028 | -40.82844 | 39073 ft | 488 kts | 260° |
| 2026-05-05 15:34 | 53.94295 | -40.94290 | 39073 ft | 488 kts | 260° |
| 2026-05-05 15:34 | 53.93550 | -41.05739 | 39066 ft | 488 kts | 260° |
| 2026-05-05 15:35 | 53.92795 | -41.17177 | 39065 ft | 488 kts | 260° |
| 2026-05-05 15:35 | 53.92030 | -41.28608 | 39062 ft | 487 kts | 260° |
| 2026-05-05 15:36 | 53.91254 | -41.40016 | 39061 ft | 487 kts | 260° |
| 2026-05-05 15:36 | 53.90466 | -41.51453 | 39054 ft | 489 kts | 260° |
| 2026-05-05 15:37 | 53.89665 | -41.62902 | 39051 ft | 489 kts | 260° |
| 2026-05-05 15:37 | 53.88858 | -41.74280 | 39051 ft | 489 kts | 259° |
| 2026-05-05 15:38 | 53.88036 | -41.85725 | 39057 ft | 489 kts | 259° |
| 2026-05-05 15:38 | 53.87204 | -41.97156 | 39042 ft | 488 kts | 259° |
| 2026-05-05 15:39 | 53.86361 | -42.08573 | 39041 ft | 488 kts | 259° |
| 2026-05-05 15:39 | 53.85508 | -42.19972 | 39037 ft | 488 kts | 259° |
| 2026-05-05 15:40 | 53.84643 | -42.31382 | 39033 ft | 488 kts | 259° |
| 2026-05-05 15:40 | 53.83769 | -42.42775 | 39031 ft | 488 kts | 259° |
| 2026-05-05 15:41 | 53.82883 | -42.54169 | 39029 ft | 488 kts | 259° |
| 2026-05-05 15:41 | 53.81987 | -42.65552 | 39020 ft | 488 kts | 259° |
| 2026-05-05 15:42 | 53.81081 | -42.76928 | 39025 ft | 488 kts | 259° |
| 2026-05-05 15:42 | 53.80164 | -42.88287 | 39015 ft | 488 kts | 259° |
| 2026-05-05 15:43 | 53.79237 | -42.99639 | 39015 ft | 488 kts | 259° |
| 2026-05-05 15:43 | 53.78297 | -43.11006 | 39016 ft | 487 kts | 258° |
| 2026-05-05 15:44 | 53.77356 | -43.22266 | 39007 ft | 486 kts | 258° |
| 2026-05-05 15:44 | 53.76398 | -43.33584 | 39004 ft | 487 kts | 258° |
| 2026-05-05 15:45 | 53.75426 | -43.44938 | 38996 ft | 489 kts | 258° |
| 2026-05-05 15:45 | 53.74442 | -43.56307 | 38995 ft | 489 kts | 258° |
| 2026-05-05 15:46 | 53.73447 | -43.67674 | 38988 ft | 489 kts | 258° |
| 2026-05-05 15:46 | 53.72443 | -43.79021 | 38989 ft | 487 kts | 258° |
| 2026-05-05 15:47 | 53.71431 | -43.90324 | 38974 ft | 487 kts | 258° |
| 2026-05-05 15:47 | 53.70409 | -44.01607 | 38981 ft | 486 kts | 258° |
| 2026-05-05 15:48 | 53.69377 | -44.12891 | 38976 ft | 486 kts | 258° |
| 2026-05-05 15:48 | 53.68334 | -44.24164 | 38973 ft | 486 kts | 258° |
| 2026-05-05 15:49 | 53.67278 | -44.35458 | 38973 ft | 488 kts | 258° |
| 2026-05-05 15:49 | 53.66210 | -44.46760 | 38947 ft | 488 kts | 258° |
| 2026-05-05 15:50 | 53.65133 | -44.58053 | 38946 ft | 488 kts | 257° |
| 2026-05-05 15:50 | 53.64045 | -44.69335 | 38933 ft | 488 kts | 257° |
| 2026-05-05 15:51 | 53.62946 | -44.80620 | 38929 ft | 488 kts | 257° |
| 2026-05-05 15:51 | 53.61844 | -44.91813 | 38938 ft | 488 kts | 257° |
| 2026-05-05 15:52 | 53.60726 | -45.03062 | 38927 ft | 487 kts | 257° |
| 2026-05-05 15:52 | 53.59598 | -45.14302 | 38914 ft | 487 kts | 257° |
| 2026-05-05 15:53 | 53.58458 | -45.25540 | 38910 ft | 488 kts | 257° |
| 2026-05-05 15:53 | 53.57306 | -45.36787 | 38906 ft | 488 kts | 257° |
| 2026-05-05 15:54 | 53.56144 | -45.48039 | 38895 ft | 488 kts | 257° |
| 2026-05-05 15:54 | 53.54971 | -45.59278 | 38892 ft | 488 kts | 257° |
| 2026-05-05 15:55 | 53.53789 | -45.70500 | 38880 ft | 487 kts | 257° |
| 2026-05-05 15:55 | 53.52596 | -45.81710 | 38892 ft | 487 kts | 257° |
| 2026-05-05 15:56 | 53.51394 | -45.92910 | 38866 ft | 487 kts | 257° |
| 2026-05-05 15:56 | 53.50180 | -46.04111 | 38871 ft | 487 kts | 257° |
| 2026-05-05 15:57 | 53.49163 | -46.13417 | 38881 ft | 488 kts | 257° |
| 2026-05-05 15:57 | 53.47930 | -46.24610 | 38866 ft | 487 kts | 257° |
| 2026-05-05 15:58 | 53.46687 | -46.35797 | 38854 ft | 487 kts | 256° |
| 2026-05-05 15:58 | 53.45433 | -46.46977 | 38854 ft | 487 kts | 256° |
| 2026-05-05 15:59 | 53.44169 | -46.58139 | 38854 ft | 487 kts | 256° |
| 2026-05-05 15:59 | 53.42896 | -46.69297 | 38833 ft | 487 kts | 256° |
| 2026-05-05 16:00 | 53.41612 | -46.80442 | 38835 ft | 487 kts | 256° |
| 2026-05-05 16:00 | 53.40319 | -46.91573 | 38834 ft | 487 kts | 256° |
| 2026-05-05 16:01 | 53.39014 | -47.02709 | 38826 ft | 487 kts | 256° |
| 2026-05-05 16:01 | 53.37698 | -47.13847 | 38812 ft | 488 kts | 256° |
| 2026-05-05 16:02 | 53.36377 | -47.24930 | 38815 ft | 488 kts | 256° |
| 2026-05-05 16:02 | 53.35029 | -47.36142 | 38799 ft | 488 kts | 256° |
| 2026-05-05 16:03 | 53.33693 | -47.47176 | 38801 ft | 487 kts | 256° |
| 2026-05-05 16:03 | 53.32338 | -47.58268 | 38796 ft | 486 kts | 255° |
| 2026-05-05 16:04 | 53.30971 | -47.69357 | 38793 ft | 487 kts | 255° |
| 2026-05-05 16:04 | 53.29596 | -47.80432 | 38778 ft | 487 kts | 255° |
| 2026-05-05 16:05 | 53.28210 | -47.91495 | 38800 ft | 487 kts | 256° |
| 2026-05-05 16:05 | 53.26814 | -48.02558 | 38775 ft | 486 kts | 256° |
| 2026-05-05 16:06 | 53.25409 | -48.13598 | 38764 ft | 486 kts | 255° |
| 2026-05-05 16:06 | 53.23995 | -48.24629 | 38763 ft | 486 kts | 255° |
| 2026-05-05 16:07 | 53.22569 | -48.35659 | 38759 ft | 486 kts | 256° |
| 2026-05-05 16:07 | 53.21134 | -48.46682 | 38748 ft | 486 kts | 255° |
| 2026-05-05 16:08 | 53.19698 | -48.57617 | 38747 ft | 485 kts | 255° |
| 2026-05-05 16:08 | 53.18238 | -48.68651 | 38748 ft | 484 kts | 255° |
| 2026-05-05 16:09 | 53.16790 | -48.79524 | 38741 ft | 483 kts | 256° |
| 2026-05-05 16:09 | 53.15319 | -48.90485 | 38730 ft | 485 kts | 255° |
| 2026-05-05 16:10 | 53.13837 | -49.01448 | 38727 ft | 486 kts | 255° |
| 2026-05-05 16:10 | 53.12343 | -49.12399 | 38733 ft | 485 kts | 255° |
| 2026-05-05 16:11 | 53.10841 | -49.23325 | 38713 ft | 484 kts | 256° |
| 2026-05-05 16:12 | 53.07814 | -49.45147 | 38714 ft | 484 kts | 255° |
| 2026-05-05 16:13 | 53.03975 | -49.72339 | 38701 ft | 484 kts | 255° |
| 2026-05-05 16:13 | 53.02424 | -49.83208 | 38697 ft | 484 kts | 255° |
| 2026-05-05 16:14 | 52.98855 | -50.04703 | 38668 ft | 481 kts | 248° |
| 2026-05-05 16:15 | 52.93946 | -50.25291 | 38679 ft | 481 kts | 246° |
| 2026-05-05 16:16 | 52.88951 | -50.45769 | 38671 ft | 480 kts | 246° |
| 2026-05-05 16:17 | 52.85195 | -50.61121 | 38659 ft | 480 kts | 246° |
| 2026-05-05 16:18 | 52.81423 | -50.76431 | 38655 ft | 479 kts | 247° |
| 2026-05-05 16:19 | 52.77619 | -50.91751 | 38652 ft | 481 kts | 246° |
| 2026-05-05 16:19 | 52.73795 | -51.07055 | 38650 ft | 480 kts | 246° |
| 2026-05-05 16:20 | 52.68664 | -51.27420 | 38640 ft | 480 kts | 247° |
| 2026-05-05 16:22 | 52.62216 | -51.52754 | 38634 ft | 480 kts | 246° |
| 2026-05-05 16:23 | 52.57034 | -51.72903 | 38626 ft | 478 kts | 246° |
| 2026-05-05 16:23 | 52.53137 | -51.87944 | 38626 ft | 476 kts | 246° |
| 2026-05-05 16:24 | 52.50531 | -51.97947 | 38624 ft | 476 kts | 246° |
| 2026-05-05 16:25 | 52.46607 | -52.12920 | 38615 ft | 476 kts | 246° |
| 2026-05-05 16:25 | 52.42661 | -52.27879 | 38618 ft | 477 kts | 246° |
| 2026-05-05 16:26 | 52.37383 | -52.47785 | 38617 ft | 477 kts | 246° |
| 2026-05-05 16:27 | 52.34717 | -52.57726 | 38621 ft | 477 kts | 246° |
| 2026-05-05 16:27 | 52.32048 | -52.67643 | 38620 ft | 476 kts | 246° |
| 2026-05-05 16:28 | 52.29385 | -52.77506 | 38620 ft | 474 kts | 246° |
| 2026-05-05 16:28 | 52.26718 | -52.87349 | 38620 ft | 474 kts | 246° |
| 2026-05-05 16:29 | 52.24042 | -52.97182 | 38609 ft | 474 kts | 246° |
| 2026-05-05 16:29 | 52.21354 | -53.07019 | 38612 ft | 474 kts | 246° |
| 2026-05-05 16:30 | 52.18658 | -53.16841 | 38616 ft | 475 kts | 246° |
| 2026-05-05 16:30 | 52.15950 | -53.26663 | 38619 ft | 475 kts | 245° |
| 2026-05-05 16:31 | 52.13236 | -53.36471 | 38612 ft | 475 kts | 245° |
| 2026-05-05 16:31 | 52.10513 | -53.46265 | 38613 ft | 475 kts | 245° |
| 2026-05-05 16:32 | 52.07783 | -53.56047 | 38609 ft | 475 kts | 245° |
| 2026-05-05 16:32 | 52.05061 | -53.65756 | 38614 ft | 476 kts | 245° |
| 2026-05-05 16:33 | 52.02312 | -53.75524 | 38622 ft | 476 kts | 245° |
| 2026-05-05 16:33 | 51.99555 | -53.85277 | 38609 ft | 475 kts | 245° |
| 2026-05-05 16:34 | 51.96790 | -53.95020 | 38610 ft | 475 kts | 245° |
| 2026-05-05 16:34 | 51.94016 | -54.04752 | 38613 ft | 476 kts | 245° |
| 2026-05-05 16:35 | 51.91230 | -54.14491 | 38617 ft | 477 kts | 245° |
| 2026-05-05 16:35 | 51.88431 | -54.24229 | 38608 ft | 477 kts | 245° |
| 2026-05-05 16:36 | 51.85625 | -54.33955 | 38611 ft | 477 kts | 245° |
| 2026-05-05 16:36 | 51.82812 | -54.43664 | 38611 ft | 477 kts | 245° |
| 2026-05-05 16:37 | 51.79922 | -54.53278 | 38974 ft | 472 kts | 240° |
| 2026-05-05 16:37 | 51.78279 | -54.57854 | 39254 ft | 470 kts | 240° |
| 2026-05-05 16:37 | 51.76601 | -54.62389 | 39410 ft | 471 kts | 239° |
| 2026-05-05 16:38 | 51.74898 | -54.66906 | 39542 ft | 472 kts | 239° |
| 2026-05-05 16:38 | 51.73175 | -54.71431 | 39607 ft | 474 kts | 239° |
| 2026-05-05 16:38 | 51.69714 | -54.80485 | 39620 ft | 474 kts | 239° |
| 2026-05-05 16:39 | 51.66252 | -54.89528 | 39618 ft | 474 kts | 239° |
| 2026-05-05 16:39 | 51.62790 | -54.98562 | 39625 ft | 474 kts | 238° |
| 2026-05-05 16:40 | 51.59321 | -55.07588 | 39628 ft | 474 kts | 238° |
| 2026-05-05 16:40 | 51.55845 | -55.16599 | 39628 ft | 474 kts | 238° |
| 2026-05-05 16:41 | 51.52360 | -55.25600 | 39611 ft | 474 kts | 238° |
| 2026-05-05 16:41 | 51.48862 | -55.34600 | 39610 ft | 475 kts | 239° |
| 2026-05-05 16:42 | 51.45353 | -55.43603 | 39616 ft | 476 kts | 238° |
| 2026-05-05 16:42 | 51.41836 | -55.52587 | 39616 ft | 475 kts | 238° |
| 2026-05-05 16:43 | 51.38316 | -55.61555 | 39612 ft | 476 kts | 238° |
| 2026-05-05 16:43 | 51.34782 | -55.70527 | 39602 ft | 476 kts | 239° |
| 2026-05-05 16:44 | 51.31240 | -55.79484 | 39608 ft | 476 kts | 239° |
| 2026-05-05 16:44 | 51.27715 | -55.88366 | 39602 ft | 476 kts | 239° |
| 2026-05-05 16:45 | 51.24161 | -55.97294 | 39610 ft | 476 kts | 239° |
| 2026-05-05 16:45 | 51.20602 | -56.06204 | 39616 ft | 476 kts | 239° |
| 2026-05-05 16:46 | 51.17042 | -56.15087 | 39614 ft | 475 kts | 239° |
| 2026-05-05 16:46 | 51.13478 | -56.23948 | 39605 ft | 475 kts | 239° |
| 2026-05-05 16:47 | 51.10512 | -56.31298 | 39608 ft | 475 kts | 239° |
| 2026-05-05 16:47 | 51.06939 | -56.40126 | 39609 ft | 474 kts | 239° |
| 2026-05-05 16:48 | 51.03362 | -56.48932 | 39614 ft | 474 kts | 238° |
| 2026-05-05 16:48 | 50.99819 | -56.57623 | 39615 ft | 466 kts | 238° |
| 2026-05-05 16:49 | 50.96294 | -56.66244 | 39622 ft | 464 kts | 238° |
| 2026-05-05 16:49 | 50.92772 | -56.74831 | 39618 ft | 465 kts | 238° |
| 2026-05-05 16:50 | 50.89244 | -56.83406 | 39619 ft | 464 kts | 238° |
| 2026-05-05 16:50 | 50.85723 | -56.91930 | 39628 ft | 461 kts | 238° |
| 2026-05-05 16:51 | 50.82205 | -57.00419 | 39640 ft | 461 kts | 238° |
| 2026-05-05 16:51 | 50.78681 | -57.08899 | 39641 ft | 461 kts | 238° |
| 2026-05-05 16:52 | 50.75155 | -57.17356 | 39652 ft | 461 kts | 238° |
| 2026-05-05 16:52 | 50.71603 | -57.25847 | 39688 ft | 466 kts | 238° |
| 2026-05-05 16:53 | 50.68047 | -57.34323 | 39674 ft | 467 kts | 237° |
| 2026-05-05 16:53 | 50.64454 | -57.42856 | 39701 ft | 468 kts | 237° |
| 2026-05-05 16:54 | 50.60852 | -57.51380 | 39690 ft | 468 kts | 237° |
| 2026-05-05 16:54 | 50.57247 | -57.59883 | 39708 ft | 467 kts | 238° |
| 2026-05-05 16:55 | 50.53636 | -57.68374 | 39710 ft | 468 kts | 238° |
| 2026-05-05 16:55 | 50.50012 | -57.76871 | 39729 ft | 469 kts | 238° |
| 2026-05-05 16:56 | 50.46366 | -57.85391 | 39745 ft | 471 kts | 237° |
| 2026-05-05 16:56 | 50.42711 | -57.93905 | 39750 ft | 470 kts | 238° |
| 2026-05-05 16:57 | 50.39054 | -58.02393 | 39763 ft | 469 kts | 238° |
| 2026-05-05 16:57 | 50.35396 | -58.10858 | 39747 ft | 469 kts | 238° |
| 2026-05-05 16:58 | 50.31730 | -58.19315 | 39765 ft | 472 kts | 238° |
| 2026-05-05 16:58 | 50.28007 | -58.27877 | 39747 ft | 479 kts | 237° |
| 2026-05-05 16:59 | 50.24284 | -58.36406 | 39771 ft | 471 kts | 237° |
| 2026-05-05 16:59 | 50.20601 | -58.44814 | 39772 ft | 468 kts | 237° |
| 2026-05-05 17:00 | 50.16918 | -58.53204 | 39773 ft | 468 kts | 237° |
| 2026-05-05 17:00 | 50.13256 | -58.61518 | 39782 ft | 468 kts | 237° |
| 2026-05-05 17:01 | 50.09557 | -58.69887 | 39769 ft | 469 kts | 237° |
| 2026-05-05 17:01 | 50.05851 | -58.78245 | 39779 ft | 469 kts | 237° |
| 2026-05-05 17:02 | 50.02139 | -58.86592 | 39786 ft | 469 kts | 237° |
| 2026-05-05 17:02 | 49.98419 | -58.94930 | 39791 ft | 469 kts | 237° |
| 2026-05-05 17:03 | 49.94699 | -59.03241 | 39787 ft | 468 kts | 237° |
| 2026-05-05 17:03 | 49.90978 | -59.11527 | 39794 ft | 468 kts | 237° |
| 2026-05-05 17:04 | 49.87254 | -59.19797 | 39793 ft | 468 kts | 237° |
| 2026-05-05 17:04 | 49.83525 | -59.28050 | 39798 ft | 468 kts | 237° |
| 2026-05-05 17:05 | 49.79790 | -59.36291 | 39792 ft | 468 kts | 237° |
| 2026-05-05 17:05 | 49.76042 | -59.44536 | 39805 ft | 468 kts | 237° |
| 2026-05-05 17:06 | 49.72290 | -59.52763 | 39803 ft | 468 kts | 237° |
| 2026-05-05 17:06 | 49.68530 | -59.60983 | 39799 ft | 468 kts | 237° |
| 2026-05-05 17:07 | 49.64764 | -59.69190 | 39792 ft | 468 kts | 237° |
| 2026-05-05 17:07 | 49.60992 | -59.77385 | 39805 ft | 469 kts | 237° |
| 2026-05-05 17:08 | 49.57341 | -59.85293 | 39806 ft | 469 kts | 237° |
| 2026-05-05 17:08 | 49.53555 | -59.93469 | 39802 ft | 469 kts | 237° |
| 2026-05-05 17:09 | 49.49767 | -60.01625 | 39811 ft | 469 kts | 236° |
| 2026-05-05 17:09 | 49.45942 | -60.09834 | 39807 ft | 469 kts | 236° |
| 2026-05-05 17:10 | 49.42159 | -60.17929 | 39800 ft | 470 kts | 236° |
| 2026-05-05 17:10 | 49.38340 | -60.26075 | 39812 ft | 470 kts | 236° |
| 2026-05-05 17:11 | 49.34517 | -60.34205 | 39808 ft | 470 kts | 236° |
| 2026-05-05 17:11 | 49.30693 | -60.42314 | 39810 ft | 469 kts | 236° |
| 2026-05-05 17:12 | 49.26867 | -60.50401 | 39823 ft | 468 kts | 236° |
| 2026-05-05 17:12 | 49.23040 | -60.58466 | 39806 ft | 468 kts | 236° |
| 2026-05-05 17:13 | 49.19207 | -60.66520 | 39827 ft | 468 kts | 236° |
| 2026-05-05 17:13 | 49.15372 | -60.74552 | 39815 ft | 467 kts | 236° |
| 2026-05-05 17:14 | 49.11546 | -60.82542 | 39818 ft | 465 kts | 236° |
| 2026-05-05 17:14 | 49.07721 | -60.90507 | 39820 ft | 465 kts | 236° |
| 2026-05-05 17:15 | 49.03892 | -60.98459 | 39815 ft | 465 kts | 236° |
| 2026-05-05 17:15 | 49.00058 | -61.06396 | 39816 ft | 464 kts | 236° |
| 2026-05-05 17:16 | 48.96233 | -61.14288 | 39818 ft | 462 kts | 236° |
| 2026-05-05 17:16 | 48.92418 | -61.22139 | 39821 ft | 460 kts | 236° |
| 2026-05-05 17:17 | 48.88611 | -61.29949 | 39823 ft | 459 kts | 236° |
| 2026-05-05 17:17 | 48.84833 | -61.37680 | 39807 ft | 458 kts | 236° |
| 2026-05-05 17:18 | 48.81042 | -61.45414 | 39816 ft | 455 kts | 236° |
| 2026-05-05 17:18 | 48.77264 | -61.53100 | 39815 ft | 455 kts | 236° |
| 2026-05-05 17:19 | 48.73478 | -61.60781 | 39815 ft | 454 kts | 236° |
| 2026-05-05 17:19 | 48.69693 | -61.68438 | 39801 ft | 454 kts | 236° |
| 2026-05-05 17:20 | 48.65908 | -61.76069 | 39813 ft | 452 kts | 236° |
| 2026-05-05 17:20 | 48.62130 | -61.83667 | 39812 ft | 452 kts | 236° |
| 2026-05-05 17:21 | 48.58351 | -61.91246 | 39811 ft | 452 kts | 236° |
| 2026-05-05 17:22 | 48.52673 | -62.02594 | 39804 ft | 451 kts | 236° |
| 2026-05-05 17:22 | 48.48887 | -62.10133 | 39813 ft | 451 kts | 236° |
| 2026-05-05 17:23 | 48.45100 | -62.17655 | 39808 ft | 450 kts | 236° |
| 2026-05-05 17:23 | 48.41307 | -62.25167 | 39806 ft | 450 kts | 235° |
| 2026-05-05 17:24 | 48.37514 | -62.32658 | 39784 ft | 450 kts | 235° |
| 2026-05-05 17:24 | 48.33715 | -62.40141 | 39799 ft | 450 kts | 235° |
| 2026-05-05 17:25 | 48.29911 | -62.47614 | 39801 ft | 450 kts | 235° |
| 2026-05-05 17:25 | 48.26101 | -62.55076 | 39801 ft | 450 kts | 235° |
| 2026-05-05 17:26 | 48.22287 | -62.62527 | 39779 ft | 450 kts | 235° |
| 2026-05-05 17:26 | 48.18465 | -62.69971 | 39786 ft | 450 kts | 234° |
| 2026-05-05 17:27 | 48.14639 | -62.77404 | 39786 ft | 450 kts | 234° |
| 2026-05-05 17:27 | 48.10808 | -62.84825 | 39784 ft | 450 kts | 234° |
| 2026-05-05 17:28 | 48.06974 | -62.92232 | 39792 ft | 450 kts | 234° |
| 2026-05-05 17:28 | 48.03134 | -62.99631 | 39789 ft | 450 kts | 234° |
| 2026-05-05 17:29 | 47.99296 | -63.07005 | 39774 ft | 450 kts | 234° |
| 2026-05-05 17:29 | 47.95498 | -63.14283 | 39777 ft | 450 kts | 234° |
| 2026-05-05 17:30 | 47.91605 | -63.21723 | 39773 ft | 450 kts | 234° |
| 2026-05-05 17:30 | 47.87779 | -63.29014 | 39775 ft | 450 kts | 234° |
| 2026-05-05 17:31 | 47.83924 | -63.36343 | 39771 ft | 450 kts | 234° |
| 2026-05-05 17:31 | 47.80060 | -63.43666 | 39768 ft | 450 kts | 234° |
| 2026-05-05 17:32 | 47.76194 | -63.50975 | 39762 ft | 450 kts | 234° |
| 2026-05-05 17:32 | 47.72324 | -63.58272 | 39757 ft | 450 kts | 234° |
| 2026-05-05 17:33 | 47.68452 | -63.65554 | 39757 ft | 449 kts | 234° |
| 2026-05-05 17:33 | 47.64570 | -63.72834 | 39760 ft | 449 kts | 234° |
| 2026-05-05 17:34 | 47.60686 | -63.80099 | 39758 ft | 449 kts | 234° |
| 2026-05-05 17:34 | 47.56799 | -63.87349 | 39753 ft | 450 kts | 234° |
| 2026-05-05 17:35 | 47.52934 | -63.94541 | 39757 ft | 449 kts | 234° |
| 2026-05-05 17:35 | 47.49035 | -64.01775 | 39757 ft | 449 kts | 233° |
| 2026-05-05 17:36 | 47.45768 | -64.07824 | 39754 ft | 449 kts | 233° |
| 2026-05-05 17:36 | 47.41863 | -64.15035 | 39754 ft | 449 kts | 233° |
| 2026-05-05 17:37 | 47.37987 | -64.22173 | 39762 ft | 448 kts | 233° |
| 2026-05-05 17:37 | 47.34087 | -64.29338 | 39756 ft | 447 kts | 233° |
| 2026-05-05 17:38 | 47.30186 | -64.36484 | 39755 ft | 447 kts | 233° |
| 2026-05-05 17:38 | 47.26281 | -64.43620 | 39748 ft | 447 kts | 233° |
| 2026-05-05 17:39 | 47.22373 | -64.50743 | 39751 ft | 447 kts | 233° |
| 2026-05-05 17:39 | 47.18459 | -64.57859 | 39754 ft | 447 kts | 233° |
| 2026-05-05 17:40 | 47.14541 | -64.64962 | 39743 ft | 447 kts | 233° |
| 2026-05-05 17:40 | 47.10618 | -64.72057 | 39728 ft | 447 kts | 233° |
| 2026-05-05 17:41 | 47.06694 | -64.79134 | 39740 ft | 447 kts | 233° |
| 2026-05-05 17:41 | 47.02771 | -64.86193 | 39744 ft | 447 kts | 233° |
| 2026-05-05 17:42 | 46.98840 | -64.93246 | 39742 ft | 447 kts | 233° |
| 2026-05-05 17:42 | 46.94910 | -65.00282 | 39727 ft | 447 kts | 233° |
| 2026-05-05 17:43 | 46.90978 | -65.07300 | 39747 ft | 445 kts | 233° |
| 2026-05-05 17:43 | 46.87083 | -65.14236 | 39745 ft | 444 kts | 233° |
| 2026-05-05 17:44 | 46.83158 | -65.21208 | 39761 ft | 444 kts | 232° |
| 2026-05-05 17:44 | 46.79210 | -65.28204 | 39749 ft | 443 kts | 232° |
| 2026-05-05 17:45 | 46.75293 | -65.35125 | 39752 ft | 442 kts | 232° |
| 2026-05-05 17:45 | 46.71407 | -65.41976 | 39755 ft | 441 kts | 232° |
| 2026-05-05 17:46 | 46.67489 | -65.48866 | 39754 ft | 441 kts | 232° |
| 2026-05-05 17:46 | 46.63570 | -65.55740 | 39763 ft | 441 kts | 232° |
| 2026-05-05 17:47 | 46.59650 | -65.62599 | 39765 ft | 440 kts | 232° |
| 2026-05-05 17:47 | 46.55735 | -65.69432 | 39767 ft | 440 kts | 232° |
| 2026-05-05 17:48 | 46.51815 | -65.76256 | 39761 ft | 440 kts | 232° |
| 2026-05-05 17:48 | 46.47893 | -65.83068 | 39761 ft | 440 kts | 232° |
| 2026-05-05 17:49 | 46.43967 | -65.89869 | 39761 ft | 439 kts | 232° |
| 2026-05-05 17:49 | 46.40048 | -65.96642 | 39771 ft | 438 kts | 232° |
| 2026-05-05 17:50 | 46.36154 | -66.03356 | 39771 ft | 438 kts | 232° |
| 2026-05-05 17:50 | 46.32225 | -66.10111 | 39762 ft | 438 kts | 232° |
| 2026-05-05 17:51 | 46.28298 | -66.16849 | 39758 ft | 438 kts | 232° |
| 2026-05-05 17:51 | 46.24373 | -66.23566 | 39763 ft | 437 kts | 232° |
| 2026-05-05 17:52 | 46.20445 | -66.30271 | 39787 ft | 437 kts | 232° |
| 2026-05-05 17:52 | 46.16516 | -66.36964 | 39770 ft | 437 kts | 232° |
| 2026-05-05 17:53 | 46.12584 | -66.43644 | 39781 ft | 437 kts | 232° |
| 2026-05-05 17:53 | 46.08649 | -66.50312 | 39771 ft | 436 kts | 232° |
| 2026-05-05 17:54 | 46.04716 | -66.56963 | 39765 ft | 436 kts | 232° |
| 2026-05-05 17:54 | 46.00777 | -66.63606 | 39772 ft | 436 kts | 232° |
| 2026-05-05 17:55 | 45.96838 | -66.70234 | 39766 ft | 435 kts | 232° |
| 2026-05-05 17:55 | 45.92901 | -66.76843 | 39773 ft | 435 kts | 232° |
| 2026-05-05 17:56 | 45.88960 | -66.83442 | 39779 ft | 435 kts | 232° |
| 2026-05-05 17:56 | 45.85019 | -66.90027 | 39771 ft | 435 kts | 232° |
| 2026-05-05 17:57 | 45.81100 | -66.96558 | 39773 ft | 434 kts | 232° |
| 2026-05-05 17:57 | 45.77159 | -67.03111 | 39789 ft | 433 kts | 232° |
| 2026-05-05 17:58 | 45.73228 | -67.09633 | 39778 ft | 432 kts | 232° |
| 2026-05-05 17:58 | 45.69298 | -67.16137 | 39788 ft | 432 kts | 232° |
| 2026-05-05 17:59 | 45.65365 | -67.22630 | 39769 ft | 432 kts | 232° |
| 2026-05-05 17:59 | 45.61428 | -67.29116 | 39776 ft | 432 kts | 232° |
| 2026-05-05 18:00 | 45.57486 | -67.35595 | 39784 ft | 432 kts | 232° |
| 2026-05-05 18:00 | 45.53539 | -67.42067 | 39787 ft | 432 kts | 232° |
| 2026-05-05 18:01 | 45.49592 | -67.48523 | 39789 ft | 432 kts | 231° |
| 2026-05-05 18:01 | 45.45642 | -67.54969 | 39789 ft | 432 kts | 231° |
| 2026-05-05 18:02 | 45.41686 | -67.61411 | 39787 ft | 432 kts | 231° |
| 2026-05-05 18:02 | 45.37722 | -67.67849 | 39795 ft | 432 kts | 231° |
| 2026-05-05 18:03 | 45.33755 | -67.74280 | 39798 ft | 433 kts | 231° |
| 2026-05-05 18:03 | 45.29728 | -67.80661 | 39805 ft | 434 kts | 231° |
| 2026-05-05 18:04 | 45.25709 | -67.86976 | 39813 ft | 434 kts | 231° |
| 2026-05-05 18:04 | 45.21665 | -67.93328 | 39804 ft | 433 kts | 230° |
| 2026-05-05 18:05 | 45.17624 | -67.99667 | 39810 ft | 434 kts | 230° |
| 2026-05-05 18:05 | 45.13574 | -68.06006 | 39815 ft | 434 kts | 230° |
| 2026-05-05 18:06 | 45.09518 | -68.12341 | 39817 ft | 434 kts | 230° |
| 2026-05-05 18:06 | 45.05462 | -68.18663 | 39820 ft | 434 kts | 230° |
| 2026-05-05 18:07 | 45.01396 | -68.24985 | 39817 ft | 435 kts | 230° |
| 2026-05-05 18:07 | 44.97323 | -68.31303 | 39815 ft | 435 kts | 230° |
| 2026-05-05 18:08 | 44.93244 | -68.37616 | 39822 ft | 435 kts | 230° |
| 2026-05-05 18:08 | 44.89164 | -68.43917 | 39801 ft | 435 kts | 230° |
| 2026-05-05 18:09 | 44.85075 | -68.50217 | 39802 ft | 436 kts | 230° |
| 2026-05-05 18:09 | 44.81000 | -68.56481 | 39787 ft | 436 kts | 230° |
| 2026-05-05 18:10 | 44.76897 | -68.62774 | 39786 ft | 436 kts | 230° |
| 2026-05-05 18:10 | 44.72788 | -68.69062 | 39784 ft | 436 kts | 230° |
| 2026-05-05 18:11 | 44.68680 | -68.75335 | 39782 ft | 435 kts | 230° |
| 2026-05-05 18:11 | 44.64580 | -68.81581 | 39788 ft | 434 kts | 230° |
| 2026-05-05 18:12 | 44.60480 | -68.87813 | 39793 ft | 434 kts | 230° |
| 2026-05-05 18:12 | 44.56379 | -68.94033 | 39792 ft | 435 kts | 230° |
| 2026-05-05 18:13 | 44.52266 | -69.00257 | 39798 ft | 435 kts | 230° |
| 2026-05-05 18:13 | 44.48147 | -69.06477 | 39812 ft | 435 kts | 230° |
| 2026-05-05 18:14 | 44.44023 | -69.12690 | 39812 ft | 435 kts | 230° |
| 2026-05-05 18:14 | 44.39896 | -69.18894 | 39814 ft | 436 kts | 230° |
| 2026-05-05 18:15 | 44.35759 | -69.25098 | 39807 ft | 436 kts | 229° |
| 2026-05-05 18:15 | 44.31617 | -69.31297 | 39815 ft | 436 kts | 229° |
| 2026-05-05 18:16 | 44.27469 | -69.37490 | 39825 ft | 436 kts | 229° |
| 2026-05-05 18:16 | 44.23317 | -69.43676 | 39825 ft | 437 kts | 229° |
| 2026-05-05 18:17 | 44.19158 | -69.49860 | 39835 ft | 437 kts | 229° |
| 2026-05-05 18:17 | 44.14993 | -69.56038 | 39830 ft | 437 kts | 229° |
| 2026-05-05 18:18 | 44.10827 | -69.62202 | 39825 ft | 437 kts | 229° |
| 2026-05-05 18:18 | 44.06660 | -69.68356 | 39832 ft | 437 kts | 229° |
| 2026-05-05 18:19 | 44.02489 | -69.74502 | 39832 ft | 437 kts | 229° |
| 2026-05-05 18:19 | 43.98311 | -69.80645 | 39831 ft | 437 kts | 229° |
| 2026-05-05 18:20 | 43.94161 | -69.86734 | 39829 ft | 438 kts | 229° |
| 2026-05-05 18:20 | 43.89940 | -69.92913 | 39831 ft | 438 kts | 229° |
| 2026-05-05 18:21 | 43.85747 | -69.99038 | 39833 ft | 438 kts | 229° |
| 2026-05-05 18:21 | 43.81545 | -70.05161 | 39832 ft | 438 kts | 229° |
| 2026-05-05 18:22 | 43.77367 | -70.11237 | 39829 ft | 439 kts | 229° |
| 2026-05-05 18:22 | 43.73155 | -70.17350 | 39806 ft | 439 kts | 229° |
| 2026-05-05 18:23 | 43.68939 | -70.23454 | 39804 ft | 439 kts | 229° |
| 2026-05-05 18:23 | 43.65556 | -70.28344 | 39805 ft | 439 kts | 229° |
| 2026-05-05 18:24 | 43.61189 | -70.34642 | 39810 ft | 439 kts | 228° |
| 2026-05-05 18:24 | 43.56968 | -70.40716 | 39804 ft | 438 kts | 228° |
| 2026-05-05 18:25 | 43.52751 | -70.46771 | 39796 ft | 438 kts | 228° |
| 2026-05-05 18:25 | 43.48528 | -70.52823 | 39786 ft | 438 kts | 228° |
| 2026-05-05 18:26 | 43.44169 | -70.58705 | 39794 ft | 441 kts | 221° |
| 2026-05-05 18:26 | 43.39870 | -70.62516 | 39777 ft | 446 kts | 209° |
| 2026-05-05 18:27 | 43.34054 | -70.65604 | 39784 ft | 450 kts | 203° |
| 2026-05-05 18:27 | 43.28152 | -70.68469 | 39781 ft | 450 kts | 203° |
| 2026-05-05 18:28 | 43.19305 | -70.72793 | 39788 ft | 450 kts | 203° |
| 2026-05-05 18:28 | 43.13413 | -70.75674 | 39787 ft | 450 kts | 203° |
| 2026-05-05 18:29 | 43.07517 | -70.78553 | 39789 ft | 450 kts | 203° |
| 2026-05-05 18:29 | 43.01621 | -70.81427 | 39784 ft | 450 kts | 203° |
| 2026-05-05 18:30 | 42.95727 | -70.84294 | 39785 ft | 450 kts | 203° |
| 2026-05-05 18:30 | 42.89829 | -70.87158 | 39798 ft | 450 kts | 203° |
| 2026-05-05 18:31 | 42.83926 | -70.90018 | 39840 ft | 450 kts | 203° |
| 2026-05-05 18:31 | 42.78038 | -70.92869 | 39824 ft | 449 kts | 203° |
| 2026-05-05 18:32 | 42.72136 | -70.95714 | 39832 ft | 450 kts | 203° |
| 2026-05-05 18:32 | 42.66230 | -70.98555 | 39844 ft | 450 kts | 203° |
| 2026-05-05 18:33 | 42.60329 | -71.01390 | 39834 ft | 450 kts | 203° |
| 2026-05-05 18:33 | 42.54414 | -71.04226 | 39843 ft | 451 kts | 203° |
| 2026-05-05 18:34 | 42.48535 | -71.07039 | 39860 ft | 451 kts | 203° |
| 2026-05-05 18:34 | 42.42580 | -71.09883 | 39849 ft | 451 kts | 203° |
| 2026-05-05 18:35 | 42.36652 | -71.12708 | 39859 ft | 452 kts | 203° |
| 2026-05-05 18:35 | 42.30759 | -71.15511 | 39869 ft | 452 kts | 203° |
| 2026-05-05 18:36 | 42.24826 | -71.18328 | 39851 ft | 452 kts | 202° |
| 2026-05-05 18:36 | 42.18881 | -71.21144 | 39872 ft | 453 kts | 202° |
| 2026-05-05 18:37 | 42.12930 | -71.23958 | 39862 ft | 453 kts | 202° |
| 2026-05-05 18:37 | 42.09970 | -71.25355 | 39652 ft | 450 kts | 202° |
| 2026-05-05 18:37 | 42.07024 | -71.26743 | 39207 ft | 446 kts | 202° |
| 2026-05-05 18:38 | 42.04102 | -71.28119 | 38662 ft | 444 kts | 202° |
| 2026-05-05 18:38 | 42.01189 | -71.29491 | 37994 ft | 443 kts | 202° |
| 2026-05-05 18:38 | 41.98284 | -71.30857 | 37384 ft | 442 kts | 202° |
| 2026-05-05 18:38 | 41.95385 | -71.32220 | 36770 ft | 440 kts | 202° |
| 2026-05-05 18:39 | 41.92505 | -71.33571 | 36321 ft | 436 kts | 202° |
| 2026-05-05 18:39 | 41.89654 | -71.34907 | 35870 ft | 432 kts | 202° |
| 2026-05-05 18:39 | 41.86825 | -71.36233 | 35403 ft | 429 kts | 202° |
| 2026-05-05 18:39 | 41.84019 | -71.37546 | 34947 ft | 426 kts | 202° |
| 2026-05-05 18:40 | 41.81231 | -71.38850 | 34517 ft | 423 kts | 202° |
| 2026-05-05 18:40 | 41.78463 | -71.40143 | 34058 ft | 420 kts | 202° |
| 2026-05-05 18:40 | 41.75709 | -71.41429 | 33566 ft | 418 kts | 202° |
| 2026-05-05 18:40 | 41.73040 | -71.42895 | 33104 ft | 411 kts | 210° |
| 2026-05-05 18:41 | 41.70662 | -71.44942 | 32671 ft | 403 kts | 220° |
| 2026-05-05 18:41 | 41.68501 | -71.47299 | 32249 ft | 399 kts | 222° |
| 2026-05-05 18:41 | 41.66386 | -71.49677 | 31807 ft | 395 kts | 222° |
| 2026-05-05 18:41 | 41.64292 | -71.52031 | 31376 ft | 392 kts | 222° |
| 2026-05-05 18:42 | 41.62212 | -71.54362 | 30958 ft | 388 kts | 222° |
| 2026-05-05 18:42 | 41.60147 | -71.56668 | 30575 ft | 385 kts | 223° |
| 2026-05-05 18:42 | 41.58094 | -71.58958 | 30041 ft | 385 kts | 223° |
| 2026-05-05 18:42 | 41.56070 | -71.61214 | 29525 ft | 383 kts | 223° |
| 2026-05-05 18:43 | 41.54011 | -71.63504 | 29110 ft | 378 kts | 222° |
| 2026-05-05 18:43 | 41.52030 | -71.65705 | 28738 ft | 373 kts | 222° |
| 2026-05-05 18:43 | 41.50047 | -71.67906 | 28353 ft | 370 kts | 222° |
| 2026-05-05 18:43 | 41.48074 | -71.70096 | 27986 ft | 368 kts | 222° |
| 2026-05-05 18:44 | 41.46113 | -71.72269 | 27592 ft | 365 kts | 222° |
| 2026-05-05 18:44 | 41.44165 | -71.74426 | 27197 ft | 363 kts | 222° |
| 2026-05-05 18:44 | 41.42233 | -71.76565 | 26809 ft | 360 kts | 222° |
| 2026-05-05 18:44 | 41.40315 | -71.78685 | 26414 ft | 357 kts | 222° |
| 2026-05-05 18:45 | 41.38412 | -71.80787 | 26029 ft | 354 kts | 222° |
| 2026-05-05 18:45 | 41.36527 | -71.82868 | 25637 ft | 351 kts | 222° |
| 2026-05-05 18:45 | 41.34657 | -71.84931 | 25246 ft | 348 kts | 222° |
| 2026-05-05 18:45 | 41.32804 | -71.86973 | 24865 ft | 345 kts | 222° |
| 2026-05-05 18:46 | 41.30964 | -71.88999 | 24488 ft | 342 kts | 222° |
| 2026-05-05 18:46 | 41.29137 | -71.91011 | 24098 ft | 339 kts | 222° |
| 2026-05-05 18:46 | 41.27320 | -71.93014 | 23730 ft | 343 kts | 222° |
| 2026-05-05 18:46 | 41.25443 | -71.95083 | 23486 ft | 356 kts | 222° |
| 2026-05-05 18:47 | 41.23530 | -71.97182 | 22958 ft | 357 kts | 222° |
| 2026-05-05 18:47 | 41.21625 | -71.99267 | 22531 ft | 353 kts | 222° |
| 2026-05-05 18:47 | 41.19731 | -72.01339 | 22137 ft | 351 kts | 222° |
| 2026-05-05 18:47 | 41.17853 | -72.03395 | 21807 ft | 349 kts | 222° |
| 2026-05-05 18:48 | 41.15988 | -72.05436 | 21435 ft | 347 kts | 222° |
| 2026-05-05 18:48 | 41.14126 | -72.07472 | 21057 ft | 345 kts | 222° |
| 2026-05-05 18:48 | 41.12279 | -72.09493 | 20689 ft | 343 kts | 222° |
| 2026-05-05 18:48 | 41.10572 | -72.11678 | 20333 ft | 339 kts | 233° |
| 2026-05-05 18:49 | 41.09378 | -72.14333 | 19979 ft | 335 kts | 248° |
| 2026-05-05 18:49 | 41.08595 | -72.17229 | 19621 ft | 333 kts | 252° |
| 2026-05-05 18:49 | 41.07890 | -72.20142 | 19266 ft | 332 kts | 252° |
| 2026-05-05 18:49 | 41.07187 | -72.23046 | 18914 ft | 330 kts | 252° |
| 2026-05-05 18:50 | 41.06481 | -72.25930 | 18577 ft | 328 kts | 252° |
| 2026-05-05 18:50 | 41.05775 | -72.28796 | 18223 ft | 326 kts | 252° |
| 2026-05-05 18:50 | 41.05071 | -72.31642 | 17840 ft | 324 kts | 252° |
| 2026-05-05 18:50 | 41.04370 | -72.34465 | 17496 ft | 321 kts | 252° |
| 2026-05-05 18:51 | 41.03674 | -72.37261 | 17174 ft | 319 kts | 252° |
| 2026-05-05 18:51 | 41.02980 | -72.40044 | 16857 ft | 317 kts | 252° |
| 2026-05-05 18:51 | 41.02291 | -72.42804 | 16538 ft | 315 kts | 252° |
| 2026-05-05 18:51 | 41.01607 | -72.45545 | 16197 ft | 312 kts | 252° |
| 2026-05-05 18:52 | 41.00926 | -72.48264 | 15876 ft | 310 kts | 252° |
| 2026-05-05 18:52 | 41.00250 | -72.50964 | 15555 ft | 308 kts | 252° |
| 2026-05-05 18:52 | 40.99578 | -72.53643 | 15233 ft | 305 kts | 252° |
| 2026-05-05 18:52 | 40.98920 | -72.56264 | 14902 ft | 303 kts | 252° |
| 2026-05-05 18:53 | 40.98249 | -72.58935 | 14583 ft | 301 kts | 252° |
| 2026-05-05 18:53 | 40.97600 | -72.61513 | 14274 ft | 298 kts | 252° |
| 2026-05-05 18:53 | 40.96946 | -72.64108 | 13951 ft | 296 kts | 253° |
| 2026-05-05 18:53 | 40.96299 | -72.66678 | 13617 ft | 294 kts | 253° |
| 2026-05-05 18:54 | 40.95655 | -72.69231 | 13294 ft | 292 kts | 252° |
| 2026-05-05 18:54 | 40.95014 | -72.71768 | 12973 ft | 289 kts | 252° |
| 2026-05-05 18:54 | 40.94379 | -72.74282 | 12669 ft | 287 kts | 252° |
| 2026-05-05 18:54 | 40.93747 | -72.76776 | 12351 ft | 285 kts | 252° |
| 2026-05-05 18:55 | 40.92951 | -72.79162 | 12057 ft | 285 kts | 241° |
| 2026-05-05 18:55 | 40.91649 | -72.81140 | 11825 ft | 288 kts | 224° |
| 2026-05-05 18:55 | 40.90058 | -72.82747 | 11557 ft | 288 kts | 220° |
| 2026-05-05 18:55 | 40.88430 | -72.84285 | 11328 ft | 287 kts | 220° |
| 2026-05-05 18:56 | 40.86815 | -72.85813 | 11090 ft | 285 kts | 220° |
| 2026-05-05 18:56 | 40.85215 | -72.87333 | 10887 ft | 280 kts | 220° |
| 2026-05-05 18:56 | 40.83655 | -72.88817 | 10721 ft | 267 kts | 220° |
| 2026-05-05 18:56 | 40.82193 | -72.90209 | 10490 ft | 258 kts | 220° |
| 2026-05-05 18:57 | 40.80745 | -72.91594 | 10267 ft | 252 kts | 220° |
| 2026-05-05 18:57 | 40.79329 | -72.92952 | 10051 ft | 251 kts | 220° |
| 2026-05-05 18:57 | 40.77919 | -72.94303 | 9777 ft | 249 kts | 220° |
| 2026-05-05 18:57 | 40.76519 | -72.95643 | 9514 ft | 249 kts | 220° |
| 2026-05-05 18:58 | 40.75118 | -72.96983 | 9326 ft | 249 kts | 220° |
| 2026-05-05 18:58 | 40.73759 | -72.98279 | 9149 ft | 238 kts | 220° |
| 2026-05-05 18:58 | 40.72446 | -72.99526 | 9001 ft | 227 kts | 220° |
| 2026-05-05 18:58 | 40.71189 | -73.00725 | 8770 ft | 221 kts | 220° |
| 2026-05-05 18:59 | 40.70000 | -73.01950 | 8564 ft | 213 kts | 226° |
| 2026-05-05 18:59 | 40.69083 | -73.03476 | 8390 ft | 210 kts | 241° |
| 2026-05-05 18:59 | 40.68607 | -73.05284 | 8202 ft | 211 kts | 257° |
| 2026-05-05 18:59 | 40.68521 | -73.07230 | 8036 ft | 214 kts | 265° |
| 2026-05-05 19:00 | 40.68541 | -73.09197 | 7843 ft | 214 kts | 265° |
| 2026-05-05 19:00 | 40.68566 | -73.11133 | 7660 ft | 214 kts | 265° |
| 2026-05-05 19:00 | 40.68587 | -73.13093 | 7488 ft | 214 kts | 265° |
| 2026-05-05 19:00 | 40.68605 | -73.15052 | 7302 ft | 214 kts | 265° |
| 2026-05-05 19:01 | 40.68618 | -73.17006 | 7125 ft | 213 kts | 265° |
| 2026-05-05 19:01 | 40.68630 | -73.18955 | 6948 ft | 213 kts | 264° |
| 2026-05-05 19:01 | 40.68640 | -73.20906 | 6765 ft | 213 kts | 264° |
| 2026-05-05 19:01 | 40.68650 | -73.22854 | 6590 ft | 212 kts | 264° |
| 2026-05-05 19:02 | 40.68659 | -73.24798 | 6401 ft | 212 kts | 264° |
| 2026-05-05 19:02 | 40.68667 | -73.26739 | 6217 ft | 212 kts | 264° |
| 2026-05-05 19:02 | 40.68675 | -73.28683 | 6038 ft | 212 kts | 264° |
| 2026-05-05 19:02 | 40.68682 | -73.30629 | 5839 ft | 213 kts | 265° |
| 2026-05-05 19:03 | 40.68691 | -73.32589 | 5674 ft | 215 kts | 265° |
| 2026-05-05 19:03 | 40.68877 | -73.34559 | 5497 ft | 222 kts | 279° |
| 2026-05-05 19:03 | 40.69459 | -73.36466 | 5304 ft | 226 kts | 288° |
| 2026-05-05 19:03 | 40.70167 | -73.38331 | 5122 ft | 228 kts | 289° |
| 2026-05-05 19:04 | 40.70886 | -73.40192 | 4930 ft | 228 kts | 289° |
| 2026-05-05 19:04 | 40.71604 | -73.42060 | 4736 ft | 229 kts | 289° |
| 2026-05-05 19:04 | 40.72320 | -73.43938 | 4532 ft | 229 kts | 289° |
| 2026-05-05 19:04 | 40.73034 | -73.45818 | 4342 ft | 229 kts | 289° |
| 2026-05-05 19:05 | 40.73747 | -73.47699 | 4156 ft | 230 kts | 289° |
| 2026-05-05 19:05 | 40.74459 | -73.49585 | 3957 ft | 229 kts | 289° |
| 2026-05-05 19:05 | 40.75169 | -73.51461 | 3761 ft | 228 kts | 289° |
| 2026-05-05 19:05 | 40.75873 | -73.53331 | 3569 ft | 227 kts | 289° |
| 2026-05-05 19:06 | 40.76565 | -73.55160 | 3452 ft | 218 kts | 289° |
| 2026-05-05 19:06 | 40.77226 | -73.56903 | 3324 ft | 207 kts | 289° |
| 2026-05-05 19:06 | 40.77847 | -73.58545 | 3223 ft | 198 kts | 288° |
| 2026-05-05 19:06 | 40.78426 | -73.60119 | 3176 ft | 184 kts | 285° |
| 2026-05-05 19:07 | 40.78742 | -73.61694 | 3118 ft | 174 kts | 266° |
| 2026-05-05 19:07 | 40.78707 | -73.62751 | 3063 ft | 169 kts | 253° |
| 2026-05-05 19:07 | 40.78079 | -73.64568 | 2973 ft | 165 kts | 230° |
| 2026-05-05 19:07 | 40.77215 | -73.65538 | 2877 ft | 163 kts | 211° |
| 2026-05-05 19:08 | 40.76221 | -73.66292 | 2661 ft | 163 kts | 210° |
| 2026-05-05 19:08 | 40.75270 | -73.67044 | 2453 ft | 159 kts | 211° |
| 2026-05-05 19:08 | 40.74335 | -73.67786 | 2225 ft | 154 kts | 211° |
| 2026-05-05 19:08 | 40.73436 | -73.68494 | 2031 ft | 148 kts | 209° |
| 2026-05-05 19:09 | 40.72569 | -73.69174 | 1834 ft | 143 kts | 209° |
| 2026-05-05 19:09 | 40.71720 | -73.69840 | 1661 ft | 141 kts | 210° |
| 2026-05-05 19:09 | 40.70889 | -73.70496 | 1460 ft | 137 kts | 209° |
| 2026-05-05 19:09 | 40.70099 | -73.71114 | 1280 ft | 127 kts | 209° |
| 2026-05-05 19:10 | 40.69354 | -73.71699 | 1127 ft | 123 kts | 208° |
| 2026-05-05 19:10 | 40.68617 | -73.72278 | 968 ft | 124 kts | 208° |
| 2026-05-05 19:10 | 40.67880 | -73.72858 | 804 ft | 124 kts | 206° |
| 2026-05-05 19:10 | 40.67148 | -73.73431 | 640 ft | 121 kts | 205° |
| 2026-05-05 19:11 | 40.66432 | -73.73993 | 468 ft | 119 kts | 207° |
| 2026-05-05 19:11 | 40.65723 | -73.74556 | 330 ft | 120 kts | 206° |
| 2026-05-05 19:11 | 40.65008 | -73.75118 | 172 ft | 117 kts | 203° |
| 2026-05-05 19:11 | 40.64305 | -73.75664 | 42 ft | 118 kts | 206° |
| 2026-05-05 19:12 | 40.63665 | -73.76161 | 28 ft | 86 kts | 211° |
| 2026-05-05 19:12 | 40.63387 | -73.76377 | 29 ft | 51 kts | 211° |
| 2026-05-05 19:12 | 40.63119 | -73.76591 | 28 ft | 40 kts | 215° |
| 2026-05-05 19:12 | 40.62968 | -73.76803 | 27 ft | 21 kts | 239° |
| 2026-05-05 19:13 | 40.62938 | -73.76871 | 27 ft | 8 kts | 242° |
| 2026-05-05 19:13 | 40.62929 | -73.76950 | 27 ft | 10 kts | 276° |
| 2026-05-05 19:13 | 40.62975 | -73.77031 | 27 ft | 12 kts | 339° |
| 2026-05-05 19:13 | 40.63066 | -73.76994 | 27 ft | 16 kts | 26° |
| 2026-05-05 19:14 | 40.63176 | -73.76952 | 28 ft | 17 kts | 6° |
| 2026-05-05 19:14 | 40.63290 | -73.76946 | 28 ft | 13 kts | 1° |
| 2026-05-05 19:14 | 40.63351 | -73.76971 | 27 ft | 10 kts | 313° |
| 2026-05-05 19:14 | 40.63396 | -73.77066 | 28 ft | 14 kts | 301° |
| 2026-05-05 19:15 | 40.63445 | -73.77174 | 30 ft | 13 kts | 301° |
| 2026-05-05 19:15 | 40.63496 | -73.77208 | 29 ft | 10 kts | 12° |
| 2026-05-05 19:15 | 40.63570 | -73.77154 | 29 ft | 14 kts | 31° |
| 2026-05-05 19:15 | 40.63646 | -73.77095 | 31 ft | 11 kts | 31° |
| 2026-05-05 19:16 | 40.63701 | -73.77052 | 31 ft | 7 kts | 30° |
| 2026-05-05 19:16 | 40.63710 | -73.77045 | 31 ft | 0 kts | 30° |
| 2026-05-05 19:30 | 40.63727 | -73.77032 | 31 ft | 5 kts | 30° |
| 2026-05-05 19:30 | 40.63769 | -73.76999 | 31 ft | 8 kts | 31° |
| 2026-05-05 19:30 | 40.63809 | -73.76993 | 31 ft | 5 kts | 337° |
| 2026-05-05 19:30 | 40.63840 | -73.77038 | 31 ft | 8 kts | 308° |
| 2026-05-05 19:31 | 40.63864 | -73.77077 | 31 ft | 1 kts | 308° |
| 2026-05-05 19:37 | 40.63877 | -73.77100 | 31 ft | 7 kts | 308° |
| 2026-05-05 19:37 | 40.63922 | -73.77174 | 28 ft | 14 kts | 308° |
| 2026-05-05 19:37 | 40.63989 | -73.77291 | 27 ft | 17 kts | 307° |
| 2026-05-05 19:37 | 40.64051 | -73.77399 | 28 ft | 11 kts | 307° |
| 2026-05-05 19:38 | 40.64108 | -73.77486 | 29 ft | 14 kts | 317° |
| 2026-05-05 19:38 | 40.64167 | -73.77542 | 29 ft | 8 kts | 328° |
| 2026-05-05 19:38 | 40.64227 | -73.77587 | 29 ft | 10 kts | 330° |
| 2026-05-05 19:38 | 40.64296 | -73.77638 | 29 ft | 11 kts | 330° |
| 2026-05-05 19:39 | 40.64341 | -73.77671 | 29 ft | 6 kts | 330° |
| 2026-05-05 19:39 | 40.64376 | -73.77701 | 29 ft | 8 kts | 323° |
| 2026-05-05 19:39 | 40.64417 | -73.77769 | 29 ft | 10 kts | 302° |
| 2026-05-05 19:39 | 40.64421 | -73.77842 | 29 ft | 9 kts | 245° |
| 2026-05-05 19:40 | 40.64395 | -73.77905 | 29 ft | 3 kts | 240° |
| 2026-05-05 19:40 | 40.64389 | -73.77919 | 29 ft | 2 kts | 240° |
| 2026-05-05 19:40 | 40.64388 | -73.77920 | 29 ft | 0 kts | 240° |